Wetterdaten: Freitag, 25.08.2023
Datum Zeit Temp. Aussen Temp. o. S. Temp +5cm Feuchte Auss Luftdruck Regen Sonnenschein Regendauer Solar Windben Empfang
25.08.2023 00:00 19,7 C 18,9 C 15,6 C 96 % 1011,2 hPa 0,0 l/m 0 min 0 min 0 W/m 6,4 km/h (2 Bft) 95,74 %
25.08.2023 00:02 19,7 C 18,9 C 15,6 C 96 % 1011,1 hPa 0,0 l/m 0 min 0 min 0 W/m 0,0 km/h (0 Bft) 12,50 %
25.08.2023 00:04 19,7 C 18,9 C 15,6 C 96 % 1011,2 hPa 0,0 l/m 0 min 0 min 0 W/m 6,4 km/h (2 Bft) 77,42 %
25.08.2023 00:08 19,7 C 18,9 C 15,6 C 96 % 1011,1 hPa 0,0 l/m 0 min 0 min 0 W/m 3,2 km/h (1 Bft) 94,06 %
25.08.2023 00:10 19,7 C 18,9 C 15,6 C 96 % 1011,1 hPa 0,0 l/m 0 min 0 min 0 W/m 3,2 km/h (1 Bft) 97,87 %
25.08.2023 00:12 19,7 C 18,9 C 15,6 C 96 % 1011,1 hPa 0,0 l/m 0 min 0 min 0 W/m 3,2 km/h (1 Bft) 97,87 %
25.08.2023 00:14 19,7 C 18,9 C 15,6 C 96 % 1011,1 hPa 0,0 l/m 0 min 0 min 0 W/m 3,2 km/h (1 Bft) 97,87 %
25.08.2023 00:16 19,7 C 18,9 C 15,6 C 96 % 1011,0 hPa 0,0 l/m 0 min 0 min 0 W/m 3,2 km/h (1 Bft) 97,87 %
25.08.2023 00:18 19,7 C 18,9 C 15,6 C 96 % 1011,1 hPa 0,0 l/m 0 min 0 min 0 W/m 3,2 km/h (1 Bft) 97,87 %
25.08.2023 00:20 19,7 C 18,9 C 15,6 C 96 % 1011,1 hPa 0,0 l/m 0 min 0 min 0 W/m 3,2 km/h (1 Bft) 97,87 %
25.08.2023 00:22 19,7 C 18,9 C 15,6 C 96 % 1011,1 hPa 0,0 l/m 0 min 0 min 0 W/m 3,2 km/h (1 Bft) 97,83 %
25.08.2023 00:24 19,7 C 18,9 C 15,6 C 96 % 1011,1 hPa 0,0 l/m 0 min 0 min 0 W/m 3,2 km/h (1 Bft) 97,87 %
25.08.2023 00:26 19,7 C 18,9 C 15,6 C 96 % 1011,1 hPa 0,0 l/m 0 min 0 min 0 W/m 3,2 km/h (1 Bft) 95,74 %
25.08.2023 00:28 19,7 C 18,9 C 15,6 C 96 % 1011,1 hPa 0,0 l/m 0 min 0 min 0 W/m 3,2 km/h (1 Bft) 97,87 %
25.08.2023 00:30 19,7 C 18,9 C 15,6 C 96 % 1011,1 hPa 0,0 l/m 0 min 0 min 0 W/m 0,0 km/h (0 Bft) 97,87 %
25.08.2023 00:32 19,7 C 18,9 C 15,6 C 96 % 1011,0 hPa 0,0 l/m 0 min 0 min 0 W/m 0,0 km/h (0 Bft) 97,87 %
25.08.2023 00:34 19,7 C 18,9 C 15,6 C 96 % 1011,1 hPa 0,0 l/m 0 min 0 min 0 W/m 0,0 km/h (0 Bft) 97,83 %
25.08.2023 00:36 19,7 C 18,9 C 15,6 C 96 % 1011,2 hPa 0,0 l/m 0 min 0 min 0 W/m 0,0 km/h (0 Bft) 97,87 %
25.08.2023 00:38 19,8 C 18,9 C 15,6 C 96 % 1011,1 hPa 0,0 l/m 0 min 0 min 0 W/m 0,0 km/h (0 Bft) 97,87 %
25.08.2023 00:40 19,8 C 18,9 C 15,6 C 96 % 1011,1 hPa 0,0 l/m 0 min 0 min 0 W/m 0,0 km/h (0 Bft) 97,87 %
25.08.2023 00:42 19,8 C 18,9 C 15,6 C 96 % 1011,0 hPa 0,0 l/m 0 min 0 min 0 W/m 0,0 km/h (0 Bft) 95,74 %
25.08.2023 00:44 19,8 C 18,9 C 15,6 C 96 % 1011,0 hPa 0,0 l/m 0 min 0 min 0 W/m 0,0 km/h (0 Bft) 97,87 %
25.08.2023 00:46 19,8 C 18,9 C 15,6 C 96 % 1011,0 hPa 0,0 l/m 0 min 0 min 0 W/m 0,0 km/h (0 Bft) 100,00 %
25.08.2023 00:48 19,7 C 18,9 C 15,6 C 96 % 1011,0 hPa 0,0 l/m 0 min 0 min 0 W/m 0,0 km/h (0 Bft) 100,00 %
25.08.2023 00:50 19,7 C 18,9 C 15,6 C 96 % 1010,9 hPa 0,0 l/m 0 min 0 min 0 W/m 3,2 km/h (1 Bft) 97,87 %
25.08.2023 00:52 19,7 C 18,9 C 15,6 C 96 % 1010,8 hPa 0,0 l/m 0 min 0 min 0 W/m 3,2 km/h (1 Bft) 100,00 %
25.08.2023 00:54 19,7 C 18,9 C 15,6 C 96 % 1010,6 hPa 0,0 l/m 0 min 0 min 0 W/m 3,2 km/h (1 Bft) 100,00 %
25.08.2023 00:56 19,7 C 18,9 C 15,6 C 96 % 1010,5 hPa 0,0 l/m 0 min 0 min 0 W/m 0,0 km/h (0 Bft) 100,00 %
25.08.2023 00:58 19,7 C 18,3 C 15,6 C 96 % 1010,4 hPa 0,0 l/m 0 min 0 min 0 W/m 3,2 km/h (1 Bft) 97,87 %
25.08.2023 01:00 19,7 C 18,3 C 15,6 C 96 % 1010,5 hPa 0,0 l/m 0 min 0 min 0 W/m 3,2 km/h (1 Bft) 97,83 %
25.08.2023 01:02 19,6 C 18,3 C 15,6 C 96 % 1010,6 hPa 0,0 l/m 0 min 0 min 0 W/m 3,2 km/h (1 Bft) 95,74 %
25.08.2023 01:05 19,6 C 18,3 C 15,6 C 96 % 1010,8 hPa 0,0 l/m 0 min 0 min 0 W/m 3,2 km/h (1 Bft) 98,25 %
25.08.2023 01:12 19,5 C 18,3 C 15,6 C 96 % 1010,7 hPa 0,0 l/m 0 min 0 min 0 W/m 6,4 km/h (2 Bft) 98,78 %
25.08.2023 01:14 19,4 C 18,3 C 15,0 C 96 % 1010,7 hPa 0,0 l/m 0 min 0 min 0 W/m 6,4 km/h (2 Bft) 97,87 %
25.08.2023 01:16 19,4 C 18,3 C 15,0 C 96 % 1010,8 hPa 0,0 l/m 0 min 0 min 0 W/m 0,0 km/h (0 Bft) 95,74 %
25.08.2023 01:18 19,4 C 18,3 C 15,0 C 96 % 1010,8 hPa 0,0 l/m 0 min 0 min 0 W/m 0,0 km/h (0 Bft) 97,87 %
25.08.2023 01:20 19,4 C 18,3 C 15,0 C 96 % 1010,8 hPa 0,0 l/m 0 min 0 min 0 W/m 3,2 km/h (1 Bft) 97,87 %
25.08.2023 01:22 19,4 C 18,3 C 15,0 C 96 % 1010,7 hPa 0,0 l/m 0 min 0 min 0 W/m 3,2 km/h (1 Bft) 97,87 %
25.08.2023 01:24 19,4 C 18,3 C 15,0 C 96 % 1010,7 hPa 0,0 l/m 0 min 0 min 0 W/m 6,4 km/h (2 Bft) 97,83 %
25.08.2023 01:26 19,3 C 18,3 C 15,0 C 96 % 1010,6 hPa 0,0 l/m 0 min 0 min 0 W/m 3,2 km/h (1 Bft) 95,74 %
25.08.2023 01:28 19,3 C 18,3 C 15,0 C 96 % 1010,5 hPa 0,0 l/m 0 min 0 min 0 W/m 3,2 km/h (1 Bft) 97,87 %
25.08.2023 01:30 19,3 C 18,3 C 15,0 C 96 % 1010,4 hPa 0,0 l/m 0 min 0 min 0 W/m 3,2 km/h (1 Bft) 100,00 %
25.08.2023 01:32 19,3 C 17,8 C 15,0 C 96 % 1010,4 hPa 0,0 l/m 0 min 0 min 0 W/m 12,9 km/h (3 Bft) 100,00 %
25.08.2023 01:34 19,2 C 17,8 C 15,0 C 96 % 1010,4 hPa 0,0 l/m 0 min 0 min 0 W/m 12,9 km/h (3 Bft) 100,00 %
25.08.2023 01:36 19,2 C 17,8 C 15,0 C 96 % 1010,4 hPa 0,0 l/m 0 min 0 min 0 W/m 6,4 km/h (2 Bft) 100,00 %
25.08.2023 01:38 19,2 C 17,8 C 15,0 C 96 % 1010,4 hPa 0,0 l/m 0 min 0 min 0 W/m 6,4 km/h (2 Bft) 100,00 %
25.08.2023 01:40 19,1 C 17,8 C 15,0 C 96 % 1010,4 hPa 0,0 l/m 0 min 0 min 0 W/m 3,2 km/h (1 Bft) 97,87 %
25.08.2023 01:42 19,1 C 17,8 C 15,0 C 96 % 1010,4 hPa 0,0 l/m 0 min 0 min 0 W/m 3,2 km/h (1 Bft) 100,00 %
25.08.2023 01:44 19,1 C 17,8 C 15,0 C 96 % 1010,4 hPa 0,0 l/m 0 min 0 min 0 W/m 6,4 km/h (2 Bft) 100,00 %
25.08.2023 01:46 19,1 C 17,8 C 15,0 C 96 % 1010,4 hPa 0,0 l/m 0 min 0 min 0 W/m 6,4 km/h (2 Bft) 100,00 %
25.08.2023 01:48 19,1 C 17,8 C 15,0 C 96 % 1010,3 hPa 0,0 l/m 0 min 0 min 0 W/m 3,2 km/h (1 Bft) 100,00 %
25.08.2023 01:50 19,1 C 17,8 C 15,0 C 96 % 1010,2 hPa 0,0 l/m 0 min 0 min 0 W/m 12,9 km/h (3 Bft) 97,83 %
25.08.2023 01:52 19,0 C 17,8 C 15,0 C 96 % 1010,1 hPa 0,0 l/m 0 min 0 min 0 W/m 16,1 km/h (3 Bft) 100,00 %
25.08.2023 01:54 19,0 C 17,8 C 15,0 C 96 % 1010,1 hPa 0,0 l/m 0 min 0 min 0 W/m 6,4 km/h (2 Bft) 97,87 %
25.08.2023 01:56 18,9 C 17,8 C 15,0 C 96 % 1010,1 hPa 0,0 l/m 0 min 0 min 0 W/m 6,4 km/h (2 Bft) 97,87 %
25.08.2023 01:58 18,9 C 17,8 C 15,0 C 96 % 1010,1 hPa 0,0 l/m 0 min 0 min 0 W/m 6,4 km/h (2 Bft) 100,00 %
25.08.2023 02:00 18,9 C 17,8 C 15,0 C 96 % 1010,0 hPa 0,0 l/m 0 min 0 min 0 W/m 12,9 km/h (3 Bft) 100,00 %
25.08.2023 02:02 18,9 C 17,8 C 15,0 C 96 % 1010,1 hPa 0,0 l/m 0 min 0 min 0 W/m 6,4 km/h (2 Bft) 100,00 %
25.08.2023 02:04 18,9 C 17,8 C 15,0 C 96 % 1010,1 hPa 0,0 l/m 0 min 0 min 0 W/m 12,9 km/h (3 Bft) 96,08 %
25.08.2023 02:06 18,9 C 17,8 C 15,0 C 96 % 1010,1 hPa 0,0 l/m 0 min 0 min 0 W/m 16,1 km/h (3 Bft) 97,87 %
25.08.2023 02:08 18,9 C 17,8 C 15,0 C 96 % 1010,0 hPa 0,0 l/m 0 min 0 min 0 W/m 12,9 km/h (3 Bft) 97,87 %
25.08.2023 02:10 18,8 C 17,8 C 15,0 C 96 % 1010,0 hPa 0,0 l/m 0 min 0 min 0 W/m 6,4 km/h (2 Bft) 97,87 %
25.08.2023 02:12 18,8 C 17,8 C 15,0 C 96 % 1010,0 hPa 0,0 l/m 0 min 0 min 0 W/m 6,4 km/h (2 Bft) 95,74 %
25.08.2023 02:14 18,8 C 17,8 C 15,0 C 96 % 1010,0 hPa 0,0 l/m 0 min 0 min 0 W/m 6,4 km/h (2 Bft) 97,83 %
25.08.2023 02:15 18,8 C 17,8 C 15,0 C 96 % 1010,0 hPa 0,0 l/m 0 min 0 min 0 W/m 6,4 km/h (2 Bft) 99,12 %
25.08.2023 02:22 18,8 C 17,8 C 15,0 C 96 % 1009,8 hPa 0,0 l/m 0 min 0 min 0 W/m 6,4 km/h (2 Bft) 98,36 %
25.08.2023 02:24 18,7 C 17,8 C 15,0 C 97 % 1009,8 hPa 0,0 l/m 0 min 0 min 0 W/m 12,9 km/h (3 Bft) 100,00 %
25.08.2023 02:26 18,7 C 17,8 C 15,0 C 97 % 1009,8 hPa 0,0 l/m 0 min 0 min 0 W/m 12,9 km/h (3 Bft) 100,00 %
25.08.2023 02:28 18,7 C 17,8 C 15,0 C 97 % 1009,8 hPa 0,0 l/m 0 min 0 min 0 W/m 6,4 km/h (2 Bft) 97,87 %
25.08.2023 02:30 18,7 C 17,8 C 14,4 C 97 % 1009,8 hPa 0,0 l/m 0 min 0 min 0 W/m 3,2 km/h (1 Bft) 97,87 %
25.08.2023 02:32 18,7 C 17,8 C 14,4 C 97 % 1009,8 hPa 0,0 l/m 0 min 0 min 0 W/m 6,4 km/h (2 Bft) 95,74 %
25.08.2023 02:34 18,7 C 17,8 C 14,4 C 97 % 1009,8 hPa 0,0 l/m 0 min 0 min 0 W/m 6,4 km/h (2 Bft) 97,87 %
25.08.2023 02:36 18,7 C 17,8 C 14,4 C 97 % 1009,8 hPa 0,0 l/m 0 min 0 min 0 W/m 3,2 km/h (1 Bft) 97,83 %
25.08.2023 02:38 18,6 C 17,8 C 14,4 C 97 % 1009,9 hPa 0,0 l/m 0 min 0 min 0 W/m 3,2 km/h (1 Bft) 97,87 %
25.08.2023 02:40 18,7 C 17,8 C 14,4 C 97 % 1009,8 hPa 0,0 l/m 0 min 0 min 0 W/m 3,2 km/h (1 Bft) 97,87 %
25.08.2023 02:42 18,6 C 17,8 C 14,4 C 97 % 1009,8 hPa 0,0 l/m 0 min 0 min 0 W/m 3,2 km/h (1 Bft) 95,74 %
25.08.2023 02:44 18,6 C 17,8 C 14,4 C 97 % 1009,8 hPa 0,0 l/m 0 min 0 min 0 W/m 3,2 km/h (1 Bft) 97,87 %
25.08.2023 02:46 18,6 C 17,8 C 14,4 C 97 % 1009,8 hPa 0,0 l/m 0 min 0 min 0 W/m 3,2 km/h (1 Bft) 97,87 %
25.08.2023 02:48 18,6 C 17,8 C 14,4 C 97 % 1009,8 hPa 0,0 l/m 0 min 0 min 0 W/m 3,2 km/h (1 Bft) 95,65 %
25.08.2023 02:50 18,6 C 17,8 C 14,4 C 97 % 1009,8 hPa 0,0 l/m 0 min 0 min 0 W/m 3,2 km/h (1 Bft) 95,74 %
25.08.2023 02:52 18,6 C 17,8 C 14,4 C 97 % 1009,8 hPa 0,0 l/m 0 min 0 min 0 W/m 3,2 km/h (1 Bft) 93,62 %
25.08.2023 02:54 18,6 C 17,8 C 14,4 C 97 % 1009,8 hPa 0,0 l/m 0 min 0 min 0 W/m 0,0 km/h (0 Bft) 95,74 %
25.08.2023 02:56 18,6 C 17,8 C 14,4 C 97 % 1009,8 hPa 0,0 l/m 0 min 0 min 0 W/m 3,2 km/h (1 Bft) 95,74 %
25.08.2023 02:58 18,6 C 17,2 C 14,4 C 97 % 1009,9 hPa 0,0 l/m 0 min 0 min 0 W/m 3,2 km/h (1 Bft) 97,87 %
25.08.2023 03:00 18,6 C 17,2 C 14,4 C 97 % 1009,9 hPa 0,0 l/m 0 min 0 min 0 W/m 3,2 km/h (1 Bft) 93,48 %
25.08.2023 03:02 18,6 C 17,2 C 14,4 C 97 % 1010,0 hPa 0,0 l/m 0 min 0 min 0 W/m 3,2 km/h (1 Bft) 97,14 %
25.08.2023 03:04 18,5 C 17,2 C 14,4 C 97 % 1010,0 hPa 0,0 l/m 0 min 0 min 0 W/m 0,0 km/h (0 Bft) 93,88 %
25.08.2023 03:06 18,5 C 17,2 C 14,4 C 97 % 1010,0 hPa 0,0 l/m 0 min 0 min 0 W/m 3,2 km/h (1 Bft) 96,61 %
25.08.2023 03:08 18,5 C 17,2 C 14,4 C 97 % 1010,0 hPa 0,0 l/m 0 min 0 min 0 W/m 0,0 km/h (0 Bft) 93,48 %
25.08.2023 03:10 18,5 C 17,2 C 14,4 C 97 % 1010,0 hPa 0,0 l/m 0 min 0 min 0 W/m 3,2 km/h (1 Bft) 94,59 %
25.08.2023 03:12 18,5 C 17,2 C 14,4 C 97 % 1009,9 hPa 0,0 l/m 0 min 0 min 0 W/m 0,0 km/h (0 Bft) 95,74 %
25.08.2023 03:14 18,4 C 17,2 C 14,4 C 97 % 1009,9 hPa 0,0 l/m 0 min 0 min 0 W/m 0,0 km/h (0 Bft) 95,74 %
25.08.2023 03:16 18,4 C 17,2 C 14,4 C 97 % 1009,9 hPa 0,0 l/m 0 min 0 min 0 W/m 3,2 km/h (1 Bft) 95,65 %
25.08.2023 03:18 18,4 C 17,2 C 14,4 C 97 % 1009,9 hPa 0,0 l/m 0 min 0 min 0 W/m 3,2 km/h (1 Bft) 91,49 %
25.08.2023 03:20 18,4 C 17,2 C 14,4 C 97 % 1009,8 hPa 0,0 l/m 0 min 0 min 0 W/m 3,2 km/h (1 Bft) 95,74 %
25.08.2023 03:22 18,4 C 17,2 C 14,4 C 97 % 1009,8 hPa 0,0 l/m 0 min 0 min 0 W/m 3,2 km/h (1 Bft) 93,62 %
25.08.2023 03:24 18,4 C 17,2 C 14,4 C 97 % 1009,8 hPa 0,0 l/m 0 min 0 min 0 W/m 3,2 km/h (1 Bft) 97,87 %
25.08.2023 03:26 18,4 C 17,2 C 14,4 C 97 % 1009,8 hPa 0,0 l/m 0 min 0 min 0 W/m 3,2 km/h (1 Bft) 97,87 %
25.08.2023 03:28 18,4 C 17,2 C 14,4 C 97 % 1009,8 hPa 0,0 l/m 0 min 0 min 0 W/m 3,2 km/h (1 Bft) 97,83 %
25.08.2023 03:30 18,4 C 17,2 C 14,4 C 97 % 1009,7 hPa 0,0 l/m 0 min 0 min 0 W/m 3,2 km/h (1 Bft) 97,87 %
25.08.2023 03:32 18,4 C 17,2 C 14,4 C 97 % 1009,7 hPa 0,0 l/m 0 min 0 min 0 W/m 3,2 km/h (1 Bft) 95,83 %
25.08.2023 03:34 18,4 C 17,2 C 14,4 C 97 % 1009,6 hPa 0,0 l/m 0 min 0 min 0 W/m 3,2 km/h (1 Bft) 97,87 %
25.08.2023 03:36 18,3 C 17,2 C 14,4 C 97 % 1009,7 hPa 0,0 l/m 0 min 0 min 0 W/m 3,2 km/h (1 Bft) 97,87 %
25.08.2023 03:38 18,3 C 17,2 C 14,4 C 97 % 1009,7 hPa 0,0 l/m 0 min 0 min 0 W/m 0,0 km/h (0 Bft) 95,74 %
25.08.2023 03:40 18,3 C 17,2 C 14,4 C 97 % 1009,7 hPa 0,0 l/m 0 min 0 min 0 W/m 3,2 km/h (1 Bft) 97,83 %
25.08.2023 03:42 18,3 C 17,2 C 14,4 C 97 % 1009,6 hPa 0,0 l/m 0 min 0 min 0 W/m 0,0 km/h (0 Bft) 100,00 %
25.08.2023 03:44 18,3 C 17,2 C 14,4 C 97 % 1009,7 hPa 0,0 l/m 0 min 0 min 0 W/m 0,0 km/h (0 Bft) 100,00 %
25.08.2023 03:46 18,3 C 17,2 C 14,4 C 97 % 1009,7 hPa 0,0 l/m 0 min 0 min 0 W/m 0,0 km/h (0 Bft) 100,00 %
25.08.2023 03:48 18,3 C 17,2 C 14,4 C 97 % 1009,7 hPa 0,0 l/m 0 min 0 min 0 W/m 0,0 km/h (0 Bft) 100,00 %
25.08.2023 03:50 18,3 C 17,2 C 14,4 C 97 % 1009,8 hPa 0,0 l/m 0 min 0 min 0 W/m 0,0 km/h (0 Bft) 100,00 %
25.08.2023 03:52 18,3 C 17,2 C 14,4 C 97 % 1009,7 hPa 0,0 l/m 0 min 0 min 0 W/m 3,2 km/h (1 Bft) 100,00 %
25.08.2023 03:54 18,3 C 17,2 C 14,4 C 97 % 1009,7 hPa 0,0 l/m 0 min 0 min 0 W/m 3,2 km/h (1 Bft) 100,00 %
25.08.2023 03:56 18,2 C 17,2 C 14,4 C 97 % 1009,7 hPa 0,0 l/m 0 min 0 min 0 W/m 0,0 km/h (0 Bft) 100,00 %
25.08.2023 03:58 18,2 C 17,2 C 14,4 C 97 % 1009,7 hPa 0,0 l/m 0 min 0 min 0 W/m 3,2 km/h (1 Bft) 95,74 %
25.08.2023 04:00 18,2 C 17,2 C 14,4 C 97 % 1009,7 hPa 0,0 l/m 0 min 0 min 0 W/m 3,2 km/h (1 Bft) 100,00 %
25.08.2023 04:02 18,2 C 17,2 C 14,4 C 97 % 1009,7 hPa 0,0 l/m 0 min 0 min 0 W/m 3,2 km/h (1 Bft) 100,00 %
25.08.2023 04:04 18,2 C 17,2 C 14,4 C 97 % 1009,7 hPa 0,0 l/m 0 min 0 min 0 W/m 3,2 km/h (1 Bft) 100,00 %
25.08.2023 04:06 18,2 C 17,2 C 14,4 C 97 % 1009,6 hPa 0,0 l/m 0 min 0 min 0 W/m 3,2 km/h (1 Bft) 100,00 %
25.08.2023 04:08 18,2 C 17,2 C 14,4 C 97 % 1009,5 hPa 0,0 l/m 0 min 0 min 0 W/m 3,2 km/h (1 Bft) 100,00 %
25.08.2023 04:10 18,2 C 17,2 C 14,4 C 97 % 1009,5 hPa 0,0 l/m 0 min 0 min 0 W/m 0,0 km/h (0 Bft) 100,00 %
25.08.2023 04:12 18,2 C 17,2 C 14,4 C 97 % 1009,6 hPa 0,0 l/m 0 min 0 min 0 W/m 3,2 km/h (1 Bft) 97,87 %
25.08.2023 04:14 18,1 C 17,2 C 14,4 C 97 % 1009,5 hPa 0,0 l/m 0 min 0 min 0 W/m 0,0 km/h (0 Bft) 100,00 %
25.08.2023 04:16 18,1 C 17,2 C 14,4 C 97 % 1009,5 hPa 0,0 l/m 0 min 0 min 0 W/m 3,2 km/h (1 Bft) 100,00 %
25.08.2023 04:18 18,1 C 17,2 C 14,4 C 97 % 1009,4 hPa 0,0 l/m 0 min 0 min 0 W/m 0,0 km/h (0 Bft) 100,00 %
25.08.2023 04:20 18,1 C 17,2 C 14,4 C 97 % 1009,4 hPa 0,0 l/m 0 min 0 min 0 W/m 3,2 km/h (1 Bft) 100,00 %
25.08.2023 04:22 18,1 C 17,2 C 14,4 C 97 % 1009,4 hPa 0,0 l/m 0 min 0 min 0 W/m 0,0 km/h (0 Bft) 100,00 %
25.08.2023 04:24 18,1 C 17,2 C 14,4 C 97 % 1009,4 hPa 0,0 l/m 0 min 0 min 0 W/m 0,0 km/h (0 Bft) 100,00 %
25.08.2023 04:26 18,1 C 17,2 C 13,9 C 97 % 1009,3 hPa 0,0 l/m 0 min 0 min 0 W/m 3,2 km/h (1 Bft) 97,87 %
25.08.2023 04:28 18,1 C 17,2 C 13,9 C 97 % 1009,3 hPa 0,0 l/m 0 min 0 min 0 W/m 3,2 km/h (1 Bft) 100,00 %
25.08.2023 04:30 18,1 C 17,2 C 13,9 C 97 % 1009,3 hPa 0,0 l/m 0 min 0 min 0 W/m 3,2 km/h (1 Bft) 97,83 %
25.08.2023 04:32 18,1 C 17,2 C 13,9 C 97 % 1009,3 hPa 0,0 l/m 0 min 0 min 0 W/m 3,2 km/h (1 Bft) 100,00 %
25.08.2023 04:34 18,1 C 17,2 C 13,9 C 97 % 1009,3 hPa 0,0 l/m 0 min 0 min 0 W/m 3,2 km/h (1 Bft) 100,00 %
25.08.2023 04:36 18,0 C 17,2 C 13,9 C 97 % 1009,2 hPa 0,0 l/m 0 min 0 min 0 W/m 3,2 km/h (1 Bft) 97,87 %
25.08.2023 04:42 18,0 C 16,7 C 13,9 C 97 % 1009,1 hPa 0,0 l/m 0 min 0 min 0 W/m 3,2 km/h (1 Bft) 100,00 %
25.08.2023 04:44 18,0 C 16,7 C 13,9 C 97 % 1009,0 hPa 0,0 l/m 0 min 0 min 0 W/m 3,2 km/h (1 Bft) 100,00 %
25.08.2023 04:46 17,9 C 16,7 C 13,9 C 97 % 1009,0 hPa 0,0 l/m 0 min 0 min 0 W/m 0,0 km/h (0 Bft) 97,87 %
25.08.2023 04:48 17,9 C 16,7 C 13,9 C 97 % 1009,0 hPa 0,0 l/m 0 min 0 min 0 W/m 3,2 km/h (1 Bft) 97,87 %
25.08.2023 04:50 17,9 C 16,7 C 13,9 C 97 % 1009,0 hPa 0,0 l/m 0 min 0 min 0 W/m 3,2 km/h (1 Bft) 91,49 %
25.08.2023 04:52 17,9 C 16,7 C 13,9 C 97 % 1008,9 hPa 0,0 l/m 0 min 0 min 0 W/m 0,0 km/h (0 Bft) 95,74 %
25.08.2023 04:54 17,9 C 16,7 C 13,9 C 97 % 1008,9 hPa 0,0 l/m 0 min 0 min 0 W/m 0,0 km/h (0 Bft) 95,65 %
25.08.2023 04:56 17,9 C 16,7 C 13,9 C 97 % 1008,9 hPa 0,0 l/m 0 min 0 min 0 W/m 0,0 km/h (0 Bft) 93,62 %
25.08.2023 04:58 17,9 C 16,7 C 13,9 C 97 % 1008,9 hPa 0,0 l/m 0 min 0 min 0 W/m 0,0 km/h (0 Bft) 95,74 %
25.08.2023 05:00 17,9 C 16,7 C 13,9 C 97 % 1009,0 hPa 0,0 l/m 0 min 0 min 0 W/m 0,0 km/h (0 Bft) 93,62 %
25.08.2023 05:02 17,9 C 16,7 C 13,9 C 97 % 1009,0 hPa 0,0 l/m 0 min 0 min 0 W/m 0,0 km/h (0 Bft) 93,62 %
25.08.2023 05:04 17,9 C 16,7 C 13,9 C 97 % 1009,0 hPa 0,0 l/m 0 min 0 min 0 W/m 0,0 km/h (0 Bft) 93,75 %
25.08.2023 05:06 17,9 C 16,7 C 13,9 C 97 % 1009,0 hPa 0,0 l/m 0 min 0 min 0 W/m 0,0 km/h (0 Bft) 96,67 %
25.08.2023 05:08 17,8 C 16,7 C 13,9 C 97 % 1009,0 hPa 0,0 l/m 0 min 0 min 0 W/m 0,0 km/h (0 Bft) 94,29 %
25.08.2023 05:10 17,8 C 16,7 C 13,9 C 97 % 1009,0 hPa 0,0 l/m 0 min 0 min 0 W/m 0,0 km/h (0 Bft) 95,74 %
25.08.2023 05:12 17,8 C 16,7 C 13,9 C 97 % 1008,9 hPa 0,0 l/m 0 min 0 min 0 W/m 0,0 km/h (0 Bft) 97,87 %
25.08.2023 05:14 17,8 C 16,7 C 13,3 C 97 % 1008,9 hPa 0,0 l/m 0 min 0 min 0 W/m 0,0 km/h (0 Bft) 97,87 %
25.08.2023 05:16 17,8 C 16,7 C 13,3 C 97 % 1008,8 hPa 0,0 l/m 0 min 0 min 0 W/m 0,0 km/h (0 Bft) 97,87 %
25.08.2023 05:18 17,7 C 16,7 C 13,3 C 97 % 1008,9 hPa 0,0 l/m 0 min 0 min 0 W/m 0,0 km/h (0 Bft) 95,74 %
25.08.2023 05:20 17,7 C 16,7 C 13,3 C 97 % 1008,9 hPa 0,0 l/m 0 min 0 min 0 W/m 0,0 km/h (0 Bft) 97,83 %
25.08.2023 05:22 17,7 C 16,7 C 13,3 C 97 % 1008,8 hPa 0,0 l/m 0 min 0 min 0 W/m 3,2 km/h (1 Bft) 97,87 %
25.08.2023 05:24 17,7 C 16,7 C 13,3 C 97 % 1008,8 hPa 0,0 l/m 0 min 0 min 0 W/m 0,0 km/h (0 Bft) 97,87 %
25.08.2023 05:26 17,7 C 16,7 C 13,3 C 97 % 1008,8 hPa 0,0 l/m 0 min 0 min 0 W/m 0,0 km/h (0 Bft) 97,87 %
25.08.2023 05:28 17,6 C 16,7 C 13,3 C 97 % 1008,8 hPa 0,0 l/m 0 min 0 min 0 W/m 0,0 km/h (0 Bft) 97,87 %
25.08.2023 05:30 17,6 C 16,7 C 13,3 C 97 % 1008,8 hPa 0,0 l/m 0 min 0 min 0 W/m 0,0 km/h (0 Bft) 97,87 %
25.08.2023 05:32 17,6 C 16,7 C 13,3 C 97 % 1008,7 hPa 0,0 l/m 0 min 0 min 0 W/m 0,0 km/h (0 Bft) 97,83 %
25.08.2023 05:34 17,6 C 16,7 C 13,3 C 97 % 1008,7 hPa 0,0 l/m 0 min 0 min 0 W/m 0,0 km/h (0 Bft) 100,00 %
25.08.2023 05:36 17,6 C 16,1 C 13,3 C 97 % 1008,7 hPa 0,0 l/m 0 min 0 min 0 W/m 0,0 km/h (0 Bft) 100,00 %
25.08.2023 05:38 17,6 C 16,1 C 13,3 C 97 % 1008,7 hPa 0,0 l/m 0 min 0 min 0 W/m 0,0 km/h (0 Bft) 100,00 %
25.08.2023 05:40 17,6 C 16,1 C 13,3 C 97 % 1008,7 hPa 0,0 l/m 0 min 0 min 0 W/m 0,0 km/h (0 Bft) 95,74 %
25.08.2023 05:42 17,6 C 16,1 C 13,3 C 97 % 1008,7 hPa 0,0 l/m 0 min 0 min 0 W/m 0,0 km/h (0 Bft) 97,87 %
25.08.2023 05:44 17,5 C 16,1 C 13,3 C 97 % 1008,7 hPa 0,0 l/m 0 min 0 min 0 W/m 0,0 km/h (0 Bft) 97,83 %
25.08.2023 05:46 17,5 C 16,1 C 13,3 C 97 % 1008,7 hPa 0,0 l/m 0 min 0 min 0 W/m 0,0 km/h (0 Bft) 95,74 %
25.08.2023 05:48 17,5 C 16,1 C 13,3 C 97 % 1008,7 hPa 0,0 l/m 0 min 0 min 0 W/m 0,0 km/h (0 Bft) 100,00 %
25.08.2023 05:50 17,4 C 16,1 C 13,3 C 97 % 1008,7 hPa 0,0 l/m 0 min 0 min 0 W/m 0,0 km/h (0 Bft) 97,87 %
25.08.2023 05:52 17,4 C 16,1 C 13,3 C 97 % 1008,7 hPa 0,0 l/m 0 min 0 min 0 W/m 0,0 km/h (0 Bft) 97,87 %
25.08.2023 05:54 17,4 C 16,1 C 13,3 C 97 % 1008,7 hPa 0,0 l/m 0 min 0 min 0 W/m 0,0 km/h (0 Bft) 91,49 %
25.08.2023 05:56 17,4 C 16,1 C 13,3 C 97 % 1008,6 hPa 0,0 l/m 0 min 0 min 0 W/m 0,0 km/h (0 Bft) 95,74 %
25.08.2023 05:58 17,4 C 16,1 C 13,3 C 97 % 1008,7 hPa 0,0 l/m 0 min 0 min 0 W/m 0,0 km/h (0 Bft) 97,83 %
25.08.2023 06:00 17,4 C 16,1 C 13,3 C 97 % 1008,7 hPa 0,0 l/m 0 min 0 min 0 W/m 0,0 km/h (0 Bft) 100,00 %
25.08.2023 06:02 17,4 C 16,1 C 13,3 C 97 % 1008,7 hPa 0,0 l/m 0 min 0 min 0 W/m 0,0 km/h (0 Bft) 95,74 %
25.08.2023 06:04 17,3 C 16,1 C 13,3 C 97 % 1008,7 hPa 0,0 l/m 0 min 0 min 0 W/m 0,0 km/h (0 Bft) 97,92 %
25.08.2023 06:08 17,3 C 16,1 C 13,3 C 97 % 1008,7 hPa 0,0 l/m 0 min 0 min 0 W/m 0,0 km/h (0 Bft) 96,43 %
25.08.2023 06:10 17,3 C 16,1 C 13,3 C 97 % 1008,7 hPa 0,0 l/m 0 min 0 min 0 W/m 0,0 km/h (0 Bft) 97,87 %
25.08.2023 06:12 17,3 C 16,1 C 13,3 C 97 % 1008,7 hPa 0,0 l/m 0 min 0 min 0 W/m 3,2 km/h (1 Bft) 97,83 %
25.08.2023 06:14 17,3 C 16,1 C 13,3 C 97 % 1008,7 hPa 0,0 l/m 0 min 0 min 0 W/m 0,0 km/h (0 Bft) 97,87 %
25.08.2023 06:16 17,3 C 16,1 C 13,3 C 97 % 1008,7 hPa 0,0 l/m 0 min 0 min 0 W/m 0,0 km/h (0 Bft) 93,62 %
25.08.2023 06:18 17,3 C 16,1 C 13,3 C 97 % 1008,7 hPa 0,0 l/m 0 min 0 min 0 W/m 0,0 km/h (0 Bft) 97,87 %
25.08.2023 06:20 17,2 C 16,1 C 13,3 C 97 % 1008,7 hPa 0,0 l/m 0 min 0 min 0 W/m 0,0 km/h (0 Bft) 95,74 %
25.08.2023 06:22 17,2 C 16,1 C 13,3 C 97 % 1008,7 hPa 0,0 l/m 0 min 0 min 0 W/m 0,0 km/h (0 Bft) 95,74 %
25.08.2023 06:24 17,2 C 16,1 C 13,3 C 97 % 1008,6 hPa 0,0 l/m 0 min 0 min 0 W/m 0,0 km/h (0 Bft) 97,83 %
25.08.2023 06:26 17,2 C 16,1 C 13,3 C 97 % 1008,7 hPa 0,0 l/m 0 min 0 min 0 W/m 0,0 km/h (0 Bft) 95,74 %
25.08.2023 06:28 17,2 C 16,1 C 13,3 C 98 % 1008,7 hPa 0,0 l/m 0 min 0 min 0 W/m 0,0 km/h (0 Bft) 97,87 %
25.08.2023 06:30 17,2 C 16,1 C 13,3 C 98 % 1008,7 hPa 0,0 l/m 0 min 0 min 0 W/m 0,0 km/h (0 Bft) 95,74 %
25.08.2023 06:32 17,2 C 16,1 C 13,3 C 98 % 1008,6 hPa 0,0 l/m 0 min 0 min 0 W/m 0,0 km/h (0 Bft) 93,62 %
25.08.2023 06:34 17,2 C 16,1 C 13,3 C 98 % 1008,7 hPa 0,0 l/m 0 min 0 min 0 W/m 0,0 km/h (0 Bft) 91,49 %
25.08.2023 06:36 17,2 C 16,1 C 13,3 C 98 % 1008,7 hPa 0,0 l/m 0 min 0 min 0 W/m 0,0 km/h (0 Bft) 91,49 %
25.08.2023 06:38 17,2 C 16,1 C 13,3 C 98 % 1008,7 hPa 0,0 l/m 0 min 0 min 0 W/m 0,0 km/h (0 Bft) 95,65 %
25.08.2023 06:40 17,2 C 16,1 C 13,3 C 98 % 1008,7 hPa 0,0 l/m 0 min 0 min 0 W/m 0,0 km/h (0 Bft) 93,62 %
25.08.2023 06:42 17,1 C 16,1 C 13,3 C 98 % 1008,7 hPa 0,0 l/m 0 min 0 min 0 W/m 0,0 km/h (0 Bft) 97,87 %
25.08.2023 06:44 17,2 C 16,1 C 13,3 C 98 % 1008,7 hPa 0,0 l/m 0 min 0 min 4 W/m 0,0 km/h (0 Bft) 97,87 %
25.08.2023 06:46 17,2 C 16,1 C 13,3 C 98 % 1008,6 hPa 0,0 l/m 0 min 0 min 5 W/m 0,0 km/h (0 Bft) 97,87 %
25.08.2023 06:48 17,2 C 16,7 C 13,3 C 98 % 1008,6 hPa 0,0 l/m 0 min 0 min 5 W/m 0,0 km/h (0 Bft) 97,87 %
25.08.2023 06:50 17,2 C 16,7 C 13,3 C 98 % 1008,6 hPa 0,0 l/m 0 min 0 min 5 W/m 0,0 km/h (0 Bft) 97,83 %
25.08.2023 06:52 17,2 C 16,7 C 13,3 C 98 % 1008,6 hPa 0,0 l/m 0 min 0 min 5 W/m 0,0 km/h (0 Bft) 97,87 %
25.08.2023 06:54 17,2 C 16,7 C 13,3 C 98 % 1008,5 hPa 0,0 l/m 0 min 0 min 6 W/m 3,2 km/h (1 Bft) 97,87 %
25.08.2023 06:56 17,2 C 16,7 C 13,3 C 98 % 1008,5 hPa 0,0 l/m 0 min 0 min 7 W/m 0,0 km/h (0 Bft) 97,87 %
25.08.2023 06:58 17,2 C 16,7 C 13,3 C 98 % 1008,5 hPa 0,0 l/m 0 min 0 min 7 W/m 0,0 km/h (0 Bft) 95,74 %
25.08.2023 07:00 17,2 C 16,7 C 13,3 C 98 % 1008,5 hPa 0,0 l/m 0 min 0 min 9 W/m 0,0 km/h (0 Bft) 100,00 %
25.08.2023 07:02 17,2 C 16,7 C 13,3 C 98 % 1008,6 hPa 0,0 l/m 0 min 0 min 10 W/m 0,0 km/h (0 Bft) 100,00 %
25.08.2023 07:04 17,3 C 16,7 C 13,3 C 98 % 1008,6 hPa 0,0 l/m 0 min 0 min 11 W/m 0,0 km/h (0 Bft) 100,00 %
25.08.2023 07:06 17,3 C 16,7 C 13,3 C 98 % 1008,5 hPa 0,0 l/m 0 min 0 min 12 W/m 0,0 km/h (0 Bft) 100,00 %
25.08.2023 07:08 17,3 C 16,7 C 13,3 C 98 % 1008,5 hPa 0,0 l/m 0 min 0 min 14 W/m 0,0 km/h (0 Bft) 97,14 %
25.08.2023 07:10 17,3 C 16,7 C 13,3 C 98 % 1008,6 hPa 0,0 l/m 0 min 0 min 16 W/m 0,0 km/h (0 Bft) 100,00 %
25.08.2023 07:12 17,3 C 16,7 C 13,3 C 98 % 1008,5 hPa 0,0 l/m 0 min 0 min 18 W/m 0,0 km/h (0 Bft) 100,00 %
25.08.2023 07:14 17,3 C 16,7 C 13,3 C 98 % 1008,5 hPa 0,0 l/m 0 min 0 min 19 W/m 3,2 km/h (1 Bft) 100,00 %
25.08.2023 07:16 17,3 C 16,7 C 13,3 C 98 % 1008,4 hPa 0,0 l/m 0 min 0 min 19 W/m 0,0 km/h (0 Bft) 97,87 %
25.08.2023 07:18 17,3 C 16,7 C 13,3 C 98 % 1008,5 hPa 0,0 l/m 0 min 0 min 20 W/m 0,0 km/h (0 Bft) 100,00 %
25.08.2023 07:20 17,3 C 16,7 C 13,9 C 98 % 1008,6 hPa 0,0 l/m 0 min 0 min 21 W/m 0,0 km/h (0 Bft) 100,00 %
25.08.2023 07:22 17,3 C 16,7 C 13,9 C 98 % 1008,7 hPa 0,0 l/m 0 min 0 min 23 W/m 3,2 km/h (1 Bft) 100,00 %
25.08.2023 07:24 17,4 C 16,7 C 13,9 C 98 % 1008,7 hPa 0,0 l/m 0 min 0 min 24 W/m 3,2 km/h (1 Bft) 100,00 %
25.08.2023 07:26 17,4 C 16,7 C 13,9 C 98 % 1008,7 hPa 0,0 l/m 0 min 0 min 25 W/m 3,2 km/h (1 Bft) 97,87 %
25.08.2023 07:28 17,4 C 16,7 C 13,9 C 98 % 1008,7 hPa 0,2 l/m 0 min 0 min 26 W/m 0,0 km/h (0 Bft) 97,83 %
25.08.2023 07:30 17,4 C 16,7 C 13,9 C 98 % 1008,7 hPa 0,0 l/m 0 min 0 min 29 W/m 0,0 km/h (0 Bft) 97,87 %
25.08.2023 07:32 17,5 C 16,7 C 13,9 C 98 % 1008,6 hPa 0,0 l/m 0 min 0 min 31 W/m 3,2 km/h (1 Bft) 95,74 %
25.08.2023 07:34 17,5 C 16,7 C 13,9 C 98 % 1008,5 hPa 0,0 l/m 0 min 0 min 33 W/m 0,0 km/h (0 Bft) 97,87 %
25.08.2023 07:36 17,5 C 17,2 C 13,9 C 98 % 1008,5 hPa 0,0 l/m 0 min 0 min 37 W/m 3,2 km/h (1 Bft) 95,74 %
25.08.2023 07:38 17,5 C 17,2 C 13,9 C 98 % 1008,4 hPa 0,0 l/m 0 min 0 min 40 W/m 3,2 km/h (1 Bft) 97,87 %
25.08.2023 07:40 17,5 C 17,2 C 13,9 C 98 % 1008,4 hPa 0,0 l/m 0 min 0 min 37 W/m 3,2 km/h (1 Bft) 97,87 %
25.08.2023 07:42 17,6 C 17,2 C 13,9 C 98 % 1008,4 hPa 0,0 l/m 0 min 0 min 33 W/m 0,0 km/h (0 Bft) 95,65 %
25.08.2023 07:44 17,6 C 17,2 C 13,9 C 98 % 1008,4 hPa 0,0 l/m 0 min 0 min 33 W/m 0,0 km/h (0 Bft) 97,87 %
25.08.2023 07:46 17,6 C 17,2 C 13,9 C 98 % 1008,4 hPa 0,0 l/m 0 min 0 min 33 W/m 3,2 km/h (1 Bft) 97,87 %
25.08.2023 07:48 17,6 C 17,2 C 13,9 C 98 % 1008,4 hPa 0,0 l/m 0 min 0 min 33 W/m 0,0 km/h (0 Bft) 97,87 %
25.08.2023 07:50 17,6 C 17,2 C 13,9 C 98 % 1008,4 hPa 0,0 l/m 0 min 0 min 35 W/m 3,2 km/h (1 Bft) 97,87 %
25.08.2023 07:52 17,7 C 17,2 C 13,9 C 98 % 1008,4 hPa 0,0 l/m 0 min 0 min 37 W/m 6,4 km/h (2 Bft) 97,87 %
25.08.2023 07:54 17,7 C 17,2 C 14,4 C 98 % 1008,4 hPa 0,0 l/m 0 min 0 min 39 W/m 3,2 km/h (1 Bft) 97,83 %
25.08.2023 07:56 17,7 C 17,2 C 14,4 C 98 % 1008,4 hPa 0,0 l/m 0 min 0 min 40 W/m 6,4 km/h (2 Bft) 97,87 %
25.08.2023 07:58 17,7 C 17,2 C 14,4 C 98 % 1008,3 hPa 0,0 l/m 0 min 0 min 42 W/m 3,2 km/h (1 Bft) 97,87 %
25.08.2023 08:00 17,8 C 17,2 C 14,4 C 98 % 1008,2 hPa 0,0 l/m 0 min 0 min 45 W/m 3,2 km/h (1 Bft) 97,87 %
25.08.2023 08:02 17,8 C 17,8 C 14,4 C 98 % 1008,2 hPa 0,0 l/m 0 min 0 min 47 W/m 3,2 km/h (1 Bft) 95,74 %
25.08.2023 08:04 17,8 C 17,8 C 14,4 C 98 % 1008,2 hPa 0,0 l/m 0 min 0 min 53 W/m 3,2 km/h (1 Bft) 97,87 %
25.08.2023 08:06 17,9 C 17,8 C 14,4 C 98 % 1008,1 hPa 0,0 l/m 0 min 0 min 57 W/m 3,2 km/h (1 Bft) 94,92 %
25.08.2023 08:08 17,9 C 17,8 C 14,4 C 98 % 1008,1 hPa 0,0 l/m 0 min 0 min 58 W/m 3,2 km/h (1 Bft) 97,22 %
25.08.2023 08:10 17,9 C 17,8 C 14,4 C 99 % 1008,1 hPa 0,0 l/m 0 min 0 min 61 W/m 3,2 km/h (1 Bft) 97,83 %
25.08.2023 08:12 18,0 C 17,8 C 14,4 C 99 % 1008,1 hPa 0,0 l/m 0 min 0 min 65 W/m 3,2 km/h (1 Bft) 93,48 %
25.08.2023 08:14 18,0 C 17,8 C 14,4 C 99 % 1008,1 hPa 0,0 l/m 0 min 0 min 67 W/m 3,2 km/h (1 Bft) 97,87 %
25.08.2023 08:16 18,1 C 18,3 C 15,0 C 99 % 1008,2 hPa 0,0 l/m 0 min 0 min 66 W/m 3,2 km/h (1 Bft) 95,74 %
25.08.2023 08:18 18,1 C 18,3 C 15,0 C 99 % 1008,2 hPa 0,0 l/m 0 min 0 min 68 W/m 3,2 km/h (1 Bft) 100,00 %
25.08.2023 08:20 18,1 C 18,3 C 15,0 C 99 % 1008,2 hPa 0,0 l/m 0 min 0 min 75 W/m 3,2 km/h (1 Bft) 97,87 %
25.08.2023 08:22 18,1 C 18,3 C 15,0 C 99 % 1008,2 hPa 0,0 l/m 0 min 0 min 94 W/m 3,2 km/h (1 Bft) 95,74 %
25.08.2023 08:24 18,2 C 18,9 C 15,0 C 99 % 1008,1 hPa 0,0 l/m 0 min 0 min 112 W/m 3,2 km/h (1 Bft) 97,87 %
25.08.2023 08:26 18,2 C 18,9 C 15,0 C 99 % 1008,1 hPa 0,0 l/m 0 min 0 min 125 W/m 3,2 km/h (1 Bft) 97,83 %
25.08.2023 08:28 18,2 C 18,9 C 15,0 C 99 % 1008,1 hPa 0,0 l/m 0 min 0 min 128 W/m 3,2 km/h (1 Bft) 97,87 %
25.08.2023 08:30 18,3 C 18,9 C 15,6 C 99 % 1008,2 hPa 0,0 l/m 0 min 0 min 125 W/m 3,2 km/h (1 Bft) 97,87 %
25.08.2023 08:32 18,3 C 18,9 C 15,6 C 99 % 1008,3 hPa 0,0 l/m 0 min 0 min 123 W/m 3,2 km/h (1 Bft) 97,87 %
25.08.2023 08:34 18,4 C 18,9 C 15,6 C 99 % 1008,3 hPa 0,0 l/m 0 min 0 min 104 W/m 3,2 km/h (1 Bft) 97,87 %
25.08.2023 08:36 18,4 C 18,9 C 15,6 C 99 % 1008,3 hPa 0,0 l/m 0 min 0 min 74 W/m 3,2 km/h (1 Bft) 97,87 %
25.08.2023 08:38 18,4 C 18,9 C 15,6 C 99 % 1008,4 hPa 0,0 l/m 0 min 2 min 48 W/m 3,2 km/h (1 Bft) 97,83 %
25.08.2023 08:40 18,4 C 18,9 C 15,6 C 99 % 1008,5 hPa 0,0 l/m 0 min 2 min 38 W/m 3,2 km/h (1 Bft) 97,87 %
25.08.2023 08:42 18,5 C 18,9 C 15,0 C 99 % 1008,6 hPa 0,0 l/m 0 min 2 min 34 W/m 3,2 km/h (1 Bft) 95,74 %
25.08.2023 08:44 18,5 C 18,9 C 15,0 C 99 % 1008,3 hPa 0,0 l/m 0 min 0 min 30 W/m 3,2 km/h (1 Bft) 97,87 %
25.08.2023 08:46 18,5 C 18,3 C 15,0 C 99 % 1008,1 hPa 0,0 l/m 0 min 0 min 36 W/m 6,4 km/h (2 Bft) 93,62 %
25.08.2023 08:48 18,5 C 18,3 C 15,0 C 99 % 1008,2 hPa 0,0 l/m 0 min 2 min 49 W/m 3,2 km/h (1 Bft) 95,74 %
25.08.2023 08:50 18,5 C 18,3 C 15,0 C 99 % 1008,2 hPa 0,0 l/m 0 min 2 min 52 W/m 0,0 km/h (0 Bft) 95,74 %
25.08.2023 08:52 18,6 C 18,3 C 15,0 C 99 % 1008,0 hPa 0,0 l/m 0 min 2 min 42 W/m 0,0 km/h (0 Bft) 95,65 %
25.08.2023 08:54 18,6 C 18,3 C 15,0 C 99 % 1008,1 hPa 0,0 l/m 0 min 0 min 30 W/m 3,2 km/h (1 Bft) 95,74 %
25.08.2023 08:56 18,6 C 18,3 C 15,0 C 99 % 1008,3 hPa 0,0 l/m 0 min 2 min 31 W/m 6,4 km/h (2 Bft) 97,87 %
25.08.2023 08:58 18,6 C 18,3 C 14,4 C 99 % 1008,3 hPa 0,2 l/m 0 min 2 min 33 W/m 3,2 km/h (1 Bft) 97,87 %
25.08.2023 09:00 18,6 C 18,3 C 14,4 C 99 % 1008,2 hPa 0,0 l/m 0 min 2 min 39 W/m 3,2 km/h (1 Bft) 97,87 %
25.08.2023 09:02 18,6 C 18,3 C 14,4 C 99 % 1008,4 hPa 0,0 l/m 0 min 2 min 51 W/m 3,2 km/h (1 Bft) 95,74 %
25.08.2023 09:04 18,6 C 18,3 C 14,4 C 99 % 1008,4 hPa 0,0 l/m 0 min 2 min 52 W/m 0,0 km/h (0 Bft) 97,83 %
25.08.2023 09:06 18,6 C 18,3 C 14,4 C 99 % 1008,2 hPa 0,0 l/m 0 min 2 min 35 W/m 3,2 km/h (1 Bft) 93,75 %
25.08.2023 09:08 18,6 C 18,3 C 14,4 C 99 % 1008,3 hPa 0,0 l/m 0 min 2 min 18 W/m 3,2 km/h (1 Bft) 97,87 %
25.08.2023 09:10 18,6 C 17,8 C 14,4 C 99 % 1008,5 hPa 0,2 l/m 0 min 2 min 12 W/m 6,4 km/h (2 Bft) 97,87 %
25.08.2023 09:12 18,6 C 17,8 C 14,4 C 99 % 1008,9 hPa 0,0 l/m 0 min 2 min 7 W/m 12,9 km/h (3 Bft) 97,87 %
25.08.2023 09:14 18,6 C 17,8 C 14,4 C 99 % 1009,0 hPa 0,0 l/m 0 min 2 min 5 W/m 9,7 km/h (2 Bft) 95,74 %
25.08.2023 09:16 18,6 C 17,8 C 14,4 C 99 % 1009,0 hPa 0,0 l/m 0 min 2 min 5 W/m 6,4 km/h (2 Bft) 97,87 %
25.08.2023 09:18 18,6 C 17,8 C 14,4 C 99 % 1008,9 hPa 0,0 l/m 0 min 2 min 5 W/m 3,2 km/h (1 Bft) 97,83 %
25.08.2023 09:20 18,6 C 17,8 C 14,4 C 98 % 1009,0 hPa 0,0 l/m 0 min 2 min 6 W/m 3,2 km/h (1 Bft) 97,87 %
25.08.2023 09:22 18,6 C 17,8 C 14,4 C 98 % 1009,0 hPa 0,2 l/m 0 min 2 min 7 W/m 3,2 km/h (1 Bft) 97,87 %
25.08.2023 09:24 18,6 C 17,8 C 14,4 C 98 % 1009,1 hPa 0,0 l/m 0 min 2 min 5 W/m 3,2 km/h (1 Bft) 95,74 %
25.08.2023 09:26 18,6 C 17,8 C 14,4 C 98 % 1009,1 hPa 0,0 l/m 0 min 2 min 5 W/m 6,4 km/h (2 Bft) 95,74 %
25.08.2023 09:28 18,6 C 17,8 C 14,4 C 98 % 1008,7 hPa 0,0 l/m 0 min 2 min 7 W/m 3,2 km/h (1 Bft) 97,87 %
25.08.2023 09:30 18,6 C 17,8 C 14,4 C 98 % 1008,4 hPa 0,0 l/m 0 min 2 min 7 W/m 6,4 km/h (2 Bft) 97,83 %
25.08.2023 09:32 18,6 C 17,8 C 14,4 C 98 % 1008,2 hPa 0,2 l/m 0 min 2 min 8 W/m 0,0 km/h (0 Bft) 97,87 %
25.08.2023 09:34 18,6 C 17,2 C 14,4 C 98 % 1008,2 hPa 0,0 l/m 0 min 2 min 9 W/m 0,0 km/h (0 Bft) 97,87 %
25.08.2023 09:36 18,6 C 17,8 C 13,9 C 98 % 1008,4 hPa 0,0 l/m 0 min 2 min 7 W/m 0,0 km/h (0 Bft) 100,00 %
25.08.2023 09:38 18,6 C 17,8 C 14,4 C 98 % 1008,9 hPa 0,0 l/m 0 min 2 min 4 W/m 6,4 km/h (2 Bft) 100,00 %
25.08.2023 09:40 18,6 C 17,2 C 14,4 C 98 % 1009,4 hPa 0,2 l/m 0 min 2 min 0 W/m 9,7 km/h (2 Bft) 100,00 %
25.08.2023 09:42 18,6 C 17,2 C 14,4 C 98 % 1009,4 hPa 0,0 l/m 0 min 2 min 0 W/m 6,4 km/h (2 Bft) 100,00 %
25.08.2023 09:44 18,6 C 17,2 C 14,4 C 98 % 1009,4 hPa 0,2 l/m 0 min 2 min 0 W/m 3,2 km/h (1 Bft) 100,00 %
25.08.2023 09:46 18,6 C 17,2 C 14,4 C 98 % 1009,3 hPa 0,2 l/m 0 min 2 min 0 W/m 6,4 km/h (2 Bft) 100,00 %
25.08.2023 09:48 18,6 C 17,2 C 14,4 C 98 % 1009,2 hPa 0,0 l/m 0 min 2 min 0 W/m 6,4 km/h (2 Bft) 97,87 %
25.08.2023 09:50 18,6 C 17,2 C 14,4 C 98 % 1009,2 hPa 0,2 l/m 0 min 2 min 0 W/m 6,4 km/h (2 Bft) 100,00 %
25.08.2023 09:52 18,5 C 17,2 C 14,4 C 98 % 1009,1 hPa 0,2 l/m 0 min 2 min 0 W/m 6,4 km/h (2 Bft) 100,00 %
25.08.2023 09:54 18,5 C 17,2 C 14,4 C 98 % 1009,0 hPa 0,2 l/m 0 min 2 min 0 W/m 12,9 km/h (3 Bft) 97,87 %
25.08.2023 09:56 18,5 C 17,2 C 13,9 C 98 % 1008,6 hPa 0,2 l/m 0 min 2 min 0 W/m 6,4 km/h (2 Bft) 100,00 %
25.08.2023 09:58 18,5 C 17,2 C 14,4 C 98 % 1008,2 hPa 0,0 l/m 0 min 2 min 0 W/m 6,4 km/h (2 Bft) 100,00 %
25.08.2023 10:00 18,5 C 17,2 C 13,9 C 98 % 1007,9 hPa 0,0 l/m 0 min 2 min 0 W/m 3,2 km/h (1 Bft) 100,00 %
25.08.2023 10:02 18,5 C 17,2 C 14,4 C 98 % 1008,0 hPa 0,2 l/m 0 min 2 min 0 W/m 3,2 km/h (1 Bft) 95,74 %
25.08.2023 10:04 18,5 C 17,2 C 14,4 C 98 % 1008,0 hPa 0,2 l/m 0 min 2 min 0 W/m 3,2 km/h (1 Bft) 100,00 %
25.08.2023 10:06 18,5 C 17,2 C 13,9 C 98 % 1007,8 hPa 0,0 l/m 0 min 2 min 0 W/m 6,4 km/h (2 Bft) 98,31 %
25.08.2023 10:08 18,4 C 17,2 C 13,9 C 98 % 1007,8 hPa 0,0 l/m 0 min 2 min 2 W/m 6,4 km/h (2 Bft) 100,00 %
25.08.2023 10:10 18,4 C 17,2 C 13,9 C 99 % 1008,2 hPa 0,0 l/m 0 min 2 min 5 W/m 6,4 km/h (2 Bft) 100,00 %
25.08.2023 10:12 18,4 C 17,2 C 14,4 C 99 % 1008,5 hPa 0,0 l/m 0 min 2 min 5 W/m 3,2 km/h (1 Bft) 97,87 %
25.08.2023 10:14 18,4 C 17,2 C 14,4 C 99 % 1008,9 hPa 0,2 l/m 0 min 2 min 5 W/m 6,4 km/h (2 Bft) 100,00 %
25.08.2023 10:16 18,4 C 17,2 C 14,4 C 99 % 1009,2 hPa 0,0 l/m 0 min 2 min 5 W/m 12,9 km/h (3 Bft) 93,62 %
25.08.2023 10:18 18,4 C 17,2 C 14,4 C 99 % 1009,6 hPa 0,0 l/m 0 min 2 min 5 W/m 12,9 km/h (3 Bft) 93,48 %
25.08.2023 10:20 18,4 C 17,2 C 14,4 C 99 % 1009,5 hPa 0,2 l/m 0 min 2 min 7 W/m 12,9 km/h (3 Bft) 95,74 %
25.08.2023 10:22 18,4 C 17,2 C 14,4 C 99 % 1009,2 hPa 0,2 l/m 0 min 2 min 7 W/m 6,4 km/h (2 Bft) 95,74 %
25.08.2023 10:24 18,4 C 17,2 C 14,4 C 99 % 1009,3 hPa 0,4 l/m 0 min 2 min 7 W/m 3,2 km/h (1 Bft) 93,62 %
25.08.2023 10:26 18,4 C 17,2 C 14,4 C 99 % 1009,1 hPa 0,2 l/m 0 min 2 min 10 W/m 6,4 km/h (2 Bft) 95,74 %
25.08.2023 10:28 18,4 C 17,2 C 14,4 C 99 % 1009,1 hPa 0,0 l/m 0 min 2 min 11 W/m 6,4 km/h (2 Bft) 95,74 %
25.08.2023 10:30 18,4 C 17,2 C 14,4 C 99 % 1009,4 hPa 0,0 l/m 0 min 2 min 12 W/m 6,4 km/h (2 Bft) 95,65 %
25.08.2023 10:32 18,4 C 17,2 C 14,4 C 99 % 1009,4 hPa 0,0 l/m 0 min 2 min 14 W/m 3,2 km/h (1 Bft) 95,74 %
25.08.2023 10:34 18,4 C 17,2 C 14,4 C 99 % 1009,1 hPa 0,2 l/m 0 min 2 min 20 W/m 3,2 km/h (1 Bft) 95,74 %
25.08.2023 10:36 18,4 C 17,2 C 14,4 C 99 % 1008,9 hPa 0,0 l/m 0 min 2 min 26 W/m 3,2 km/h (1 Bft) 95,74 %
25.08.2023 10:38 18,4 C 17,2 C 14,4 C 99 % 1008,7 hPa 0,0 l/m 0 min 2 min 34 W/m 3,2 km/h (1 Bft) 97,87 %
25.08.2023 10:40 18,4 C 17,2 C 14,4 C 99 % 1008,6 hPa 0,0 l/m 0 min 2 min 51 W/m 6,4 km/h (2 Bft) 95,74 %
25.08.2023 10:42 18,4 C 17,2 C 14,4 C 99 % 1008,5 hPa 0,2 l/m 0 min 2 min 75 W/m 3,2 km/h (1 Bft) 95,74 %
25.08.2023 10:44 18,4 C 17,8 C 14,4 C 99 % 1008,3 hPa 0,0 l/m 0 min 2 min 98 W/m 9,7 km/h (2 Bft) 95,65 %
25.08.2023 10:46 18,4 C 17,8 C 14,4 C 99 % 1008,4 hPa 0,0 l/m 0 min 0 min 106 W/m 3,2 km/h (1 Bft) 95,74 %
25.08.2023 10:48 18,4 C 17,8 C 14,4 C 99 % 1008,6 hPa 0,0 l/m 0 min 2 min 101 W/m 6,4 km/h (2 Bft) 97,87 %
25.08.2023 10:50 18,5 C 17,8 C 14,4 C 99 % 1008,8 hPa 0,0 l/m 0 min 0 min 76 W/m 3,2 km/h (1 Bft) 97,87 %
25.08.2023 10:52 18,6 C 17,8 C 14,4 C 99 % 1009,0 hPa 0,0 l/m 0 min 0 min 43 W/m 3,2 km/h (1 Bft) 97,87 %
25.08.2023 10:54 18,6 C 17,8 C 14,4 C 99 % 1009,0 hPa 0,0 l/m 0 min 2 min 52 W/m 0,0 km/h (0 Bft) 95,74 %
25.08.2023 10:56 18,6 C 17,8 C 14,4 C 99 % 1009,0 hPa 0,0 l/m 0 min 2 min 42 W/m 3,2 km/h (1 Bft) 95,65 %
25.08.2023 10:58 18,7 C 17,8 C 14,4 C 99 % 1009,1 hPa 0,4 l/m 0 min 2 min 28 W/m 6,4 km/h (2 Bft) 97,87 %
25.08.2023 11:00 18,7 C 17,8 C 14,4 C 99 % 1009,2 hPa 0,2 l/m 0 min 2 min 21 W/m 6,4 km/h (2 Bft) 97,87 %
25.08.2023 11:02 18,7 C 17,8 C 14,4 C 99 % 1009,1 hPa 0,6 l/m 0 min 2 min 16 W/m 3,2 km/h (1 Bft) 95,74 %
25.08.2023 11:04 18,7 C 17,8 C 14,4 C 99 % 1009,4 hPa 0,6 l/m 0 min 2 min 12 W/m 6,4 km/h (2 Bft) 98,04 %
25.08.2023 11:06 18,6 C 17,2 C 14,4 C 99 % 1010,0 hPa 1,0 l/m 0 min 2 min 12 W/m 19,3 km/h (3 Bft) 97,87 %
25.08.2023 11:08 18,6 C 17,2 C 14,4 C 99 % 1010,0 hPa 1,6 l/m 0 min 2 min 12 W/m 19,3 km/h (3 Bft) 97,83 %
25.08.2023 11:10 18,6 C 17,2 C 13,9 C 99 % 1009,7 hPa 2,6 l/m 0 min 2 min 15 W/m 12,9 km/h (3 Bft) 100,00 %
25.08.2023 11:12 18,4 C 16,7 C 13,9 C 99 % 1009,0 hPa 1,4 l/m 0 min 2 min 17 W/m 19,3 km/h (3 Bft) 100,00 %
25.08.2023 11:14 18,3 C 16,7 C 13,9 C 99 % 1008,7 hPa 2,4 l/m 0 min 2 min 18 W/m 6,4 km/h (2 Bft) 100,00 %
25.08.2023 11:16 18,3 C 16,7 C 13,9 C 99 % 1008,3 hPa 1,2 l/m 0 min 2 min 26 W/m 6,4 km/h (2 Bft) 100,00 %
25.08.2023 11:18 18,2 C 16,7 C 13,9 C 99 % 1008,7 hPa 0,2 l/m 0 min 2 min 31 W/m 6,4 km/h (2 Bft) 100,00 %
25.08.2023 11:20 18,2 C 17,2 C 13,9 C 99 % 1008,9 hPa 0,0 l/m 0 min 2 min 37 W/m 6,4 km/h (2 Bft) 100,00 %
25.08.2023 11:22 18,2 C 17,2 C 13,9 C 99 % 1008,8 hPa 0,0 l/m 0 min 0 min 55 W/m 3,2 km/h (1 Bft) 100,00 %
25.08.2023 11:24 18,2 C 17,2 C 13,9 C 99 % 1008,8 hPa 0,0 l/m 0 min 0 min 72 W/m 3,2 km/h (1 Bft) 97,87 %
25.08.2023 11:26 18,2 C 17,2 C 13,9 C 99 % 1008,8 hPa 0,0 l/m 0 min 0 min 56 W/m 3,2 km/h (1 Bft) 100,00 %
25.08.2023 11:28 18,2 C 17,2 C 14,4 C 99 % 1008,9 hPa 0,0 l/m 0 min 0 min 41 W/m 3,2 km/h (1 Bft) 100,00 %
25.08.2023 11:30 18,2 C 17,2 C 14,4 C 99 % 1009,0 hPa 0,0 l/m 0 min 0 min 28 W/m 3,2 km/h (1 Bft) 97,87 %
25.08.2023 11:32 18,2 C 17,2 C 14,4 C 99 % 1009,2 hPa 0,0 l/m 0 min 0 min 25 W/m 3,2 km/h (1 Bft) 97,87 %
25.08.2023 11:34 18,2 C 17,2 C 14,4 C 99 % 1009,2 hPa 0,0 l/m 0 min 0 min 21 W/m 6,4 km/h (2 Bft) 97,87 %
25.08.2023 11:36 18,3 C 17,2 C 14,4 C 99 % 1009,2 hPa 0,0 l/m 0 min 0 min 25 W/m 3,2 km/h (1 Bft) 95,65 %
25.08.2023 11:38 18,3 C 17,2 C 14,4 C 99 % 1009,0 hPa 0,0 l/m 0 min 0 min 25 W/m 3,2 km/h (1 Bft) 97,87 %
25.08.2023 11:40 18,3 C 17,2 C 14,4 C 99 % 1009,1 hPa 0,0 l/m 0 min 0 min 20 W/m 3,2 km/h (1 Bft) 95,74 %
25.08.2023 11:42 18,3 C 17,2 C 14,4 C 99 % 1009,1 hPa 0,0 l/m 0 min 0 min 18 W/m 3,2 km/h (1 Bft) 95,74 %
25.08.2023 11:44 18,3 C 17,2 C 14,4 C 99 % 1009,1 hPa 0,0 l/m 0 min 0 min 15 W/m 3,2 km/h (1 Bft) 97,87 %
25.08.2023 11:46 18,3 C 17,2 C 14,4 C 99 % 1008,9 hPa 0,0 l/m 0 min 2 min 16 W/m 3,2 km/h (1 Bft) 97,87 %
25.08.2023 11:48 18,3 C 17,2 C 14,4 C 99 % 1008,9 hPa 0,2 l/m 0 min 2 min 15 W/m 3,2 km/h (1 Bft) 95,65 %
25.08.2023 11:50 18,3 C 17,2 C 14,4 C 99 % 1009,4 hPa 0,0 l/m 0 min 2 min 7 W/m 6,4 km/h (2 Bft) 97,87 %
25.08.2023 11:52 18,3 C 17,2 C 14,4 C 99 % 1009,6 hPa 0,2 l/m 0 min 2 min 5 W/m 9,7 km/h (2 Bft) 97,87 %
25.08.2023 11:54 18,3 C 17,2 C 14,4 C 99 % 1009,7 hPa 1,0 l/m 0 min 2 min 9 W/m 12,9 km/h (3 Bft) 97,87 %
25.08.2023 11:56 18,3 C 17,2 C 14,4 C 99 % 1010,0 hPa 0,6 l/m 0 min 2 min 9 W/m 12,9 km/h (3 Bft) 97,87 %
25.08.2023 11:58 18,3 C 17,2 C 14,4 C 99 % 1009,9 hPa 0,8 l/m 0 min 2 min 10 W/m 6,4 km/h (2 Bft) 97,87 %
25.08.2023 12:00 18,2 C 16,7 C 13,9 C 99 % 1009,7 hPa 0,6 l/m 0 min 2 min 11 W/m 12,9 km/h (3 Bft) 95,74 %
25.08.2023 12:02 18,2 C 16,7 C 13,9 C 99 % 1009,4 hPa 2,2 l/m 0 min 2 min 12 W/m 16,1 km/h (3 Bft) 97,83 %
25.08.2023 12:04 18,1 C 16,7 C 13,9 C 99 % 1008,9 hPa 0,8 l/m 0 min 2 min 16 W/m 6,4 km/h (2 Bft) 98,00 %
25.08.2023 12:08 18,1 C 16,7 C 13,9 C 99 % 1009,0 hPa 1,0 l/m 0 min 4 min 18 W/m 12,9 km/h (3 Bft) 97,59 %
25.08.2023 12:10 18,0 C 16,7 C 13,9 C 99 % 1009,0 hPa 0,4 l/m 0 min 2 min 18 W/m 6,4 km/h (2 Bft) 95,74 %
25.08.2023 12:12 18,0 C 16,7 C 13,9 C 99 % 1008,6 hPa 0,0 l/m 0 min 2 min 20 W/m 16,1 km/h (3 Bft) 97,87 %
25.08.2023 12:14 18,0 C 16,7 C 13,9 C 99 % 1008,5 hPa 0,0 l/m 0 min 2 min 19 W/m 6,4 km/h (2 Bft) 93,48 %
25.08.2023 12:16 18,0 C 16,7 C 13,9 C 99 % 1008,7 hPa 0,0 l/m 0 min 2 min 18 W/m 9,7 km/h (2 Bft) 93,62 %
25.08.2023 12:18 18,0 C 16,7 C 13,9 C 99 % 1009,0 hPa 0,0 l/m 0 min 2 min 18 W/m 12,9 km/h (3 Bft) 95,74 %
25.08.2023 12:20 17,9 C 16,7 C 13,9 C 99 % 1009,4 hPa 0,0 l/m 0 min 2 min 20 W/m 9,7 km/h (2 Bft) 95,74 %
25.08.2023 12:22 18,0 C 16,7 C 13,9 C 99 % 1009,4 hPa 0,2 l/m 0 min 2 min 23 W/m 9,7 km/h (2 Bft) 95,74 %
25.08.2023 12:24 18,0 C 16,7 C 13,9 C 99 % 1009,3 hPa 0,0 l/m 0 min 2 min 27 W/m 6,4 km/h (2 Bft) 97,87 %
25.08.2023 12:26 18,0 C 16,7 C 13,9 C 99 % 1009,2 hPa 0,2 l/m 0 min 2 min 28 W/m 3,2 km/h (1 Bft) 97,87 %
25.08.2023 12:28 17,9 C 16,7 C 13,9 C 99 % 1009,1 hPa 0,0 l/m 0 min 2 min 26 W/m 6,4 km/h (2 Bft) 97,83 %
25.08.2023 12:30 18,0 C 16,7 C 13,9 C 99 % 1009,1 hPa 0,0 l/m 0 min 2 min 23 W/m 3,2 km/h (1 Bft) 95,74 %
25.08.2023 12:32 18,0 C 16,7 C 13,9 C 99 % 1009,1 hPa 0,2 l/m 0 min 2 min 20 W/m 6,4 km/h (2 Bft) 97,87 %
25.08.2023 12:34 17,9 C 16,7 C 13,9 C 99 % 1009,1 hPa 0,0 l/m 0 min 2 min 18 W/m 3,2 km/h (1 Bft) 95,74 %
25.08.2023 12:36 17,9 C 16,7 C 13,9 C 99 % 1009,2 hPa 0,0 l/m 0 min 2 min 19 W/m 3,2 km/h (1 Bft) 97,87 %
25.08.2023 12:38 17,9 C 16,7 C 13,9 C 99 % 1009,1 hPa 0,2 l/m 0 min 2 min 19 W/m 3,2 km/h (1 Bft) 97,87 %
25.08.2023 12:40 17,9 C 16,7 C 13,9 C 99 % 1008,9 hPa 0,0 l/m 0 min 2 min 22 W/m 12,9 km/h (3 Bft) 93,62 %
25.08.2023 12:42 17,9 C 16,7 C 13,9 C 99 % 1008,7 hPa 0,0 l/m 0 min 2 min 25 W/m 3,2 km/h (1 Bft) 97,83 %
25.08.2023 12:44 17,9 C 16,7 C 13,9 C 99 % 1008,7 hPa 0,2 l/m 0 min 2 min 29 W/m 3,2 km/h (1 Bft) 100,00 %
25.08.2023 12:46 17,9 C 17,2 C 13,9 C 99 % 1008,5 hPa 0,2 l/m 0 min 2 min 33 W/m 6,4 km/h (2 Bft) 100,00 %
25.08.2023 12:48 17,9 C 17,2 C 13,9 C 99 % 1008,5 hPa 0,0 l/m 0 min 2 min 38 W/m 3,2 km/h (1 Bft) 95,74 %
25.08.2023 12:50 18,0 C 17,2 C 14,4 C 99 % 1008,6 hPa 0,0 l/m 0 min 2 min 50 W/m 6,4 km/h (2 Bft) 100,00 %
25.08.2023 12:52 18,0 C 17,2 C 14,4 C 99 % 1008,4 hPa 0,2 l/m 0 min 2 min 67 W/m 12,9 km/h (3 Bft) 100,00 %
25.08.2023 12:54 18,1 C 17,2 C 14,4 C 99 % 1008,4 hPa 0,0 l/m 0 min 2 min 88 W/m 3,2 km/h (1 Bft) 100,00 %
25.08.2023 12:56 18,1 C 17,2 C 14,4 C 99 % 1008,6 hPa 0,0 l/m 0 min 2 min 107 W/m 3,2 km/h (1 Bft) 100,00 %
25.08.2023 12:58 18,2 C 17,8 C 14,4 C 99 % 1008,8 hPa 0,0 l/m 0 min 2 min 132 W/m 3,2 km/h (1 Bft) 97,87 %
25.08.2023 13:00 18,2 C 17,8 C 14,4 C 99 % 1008,8 hPa 0,0 l/m 0 min 2 min 121 W/m 3,2 km/h (1 Bft) 100,00 %
25.08.2023 13:02 18,3 C 17,8 C 14,4 C 99 % 1008,9 hPa 0,2 l/m 0 min 0 min 92 W/m 3,2 km/h (1 Bft) 100,00 %
25.08.2023 13:04 18,3 C 17,8 C 14,4 C 99 % 1009,0 hPa 0,0 l/m 0 min 0 min 89 W/m 3,2 km/h (1 Bft) 100,00 %
25.08.2023 13:06 18,5 C 17,8 C 15,0 C 100 % 1008,9 hPa 0,0 l/m 0 min 0 min 118 W/m 6,4 km/h (2 Bft) 94,92 %
25.08.2023 13:08 18,6 C 18,3 C 15,0 C 100 % 1009,0 hPa 0,0 l/m 0 min 2 min 135 W/m 3,2 km/h (1 Bft) 97,14 %
25.08.2023 13:10 18,6 C 18,3 C 15,0 C 100 % 1009,0 hPa 0,0 l/m 0 min 2 min 135 W/m 6,4 km/h (2 Bft) 95,74 %
25.08.2023 13:12 18,7 C 18,3 C 15,0 C 100 % 1009,1 hPa 0,0 l/m 0 min 0 min 113 W/m 6,4 km/h (2 Bft) 95,74 %
25.08.2023 13:14 18,7 C 18,3 C 15,0 C 100 % 1009,3 hPa 0,0 l/m 0 min 0 min 99 W/m 3,2 km/h (1 Bft) 97,87 %
25.08.2023 13:16 18,7 C 18,3 C 15,0 C 100 % 1009,1 hPa 0,0 l/m 0 min 0 min 120 W/m 3,2 km/h (1 Bft) 95,74 %
25.08.2023 13:18 18,8 C 18,3 C 15,0 C 100 % 1009,4 hPa 0,0 l/m 0 min 0 min 101 W/m 3,2 km/h (1 Bft) 97,87 %
25.08.2023 13:20 18,8 C 18,3 C 15,0 C 100 % 1009,2 hPa 0,0 l/m 0 min 2 min 116 W/m 6,4 km/h (2 Bft) 97,87 %
25.08.2023 13:22 18,9 C 18,3 C 15,0 C 100 % 1009,3 hPa 0,0 l/m 0 min 2 min 99 W/m 3,2 km/h (1 Bft) 97,83 %
25.08.2023 13:24 18,9 C 18,3 C 15,0 C 100 % 1009,2 hPa 0,0 l/m 0 min 0 min 71 W/m 3,2 km/h (1 Bft) 97,87 %
25.08.2023 13:26 18,9 C 18,3 C 15,0 C 100 % 1008,8 hPa 0,0 l/m 0 min 0 min 76 W/m 3,2 km/h (1 Bft) 97,87 %
25.08.2023 13:28 18,9 C 18,3 C 15,0 C 100 % 1008,9 hPa 0,0 l/m 0 min 2 min 99 W/m 3,2 km/h (1 Bft) 97,87 %
25.08.2023 13:30 18,9 C 18,3 C 15,0 C 100 % 1009,0 hPa 0,2 l/m 0 min 2 min 113 W/m 3,2 km/h (1 Bft) 97,87 %
25.08.2023 13:32 19,0 C 18,3 C 15,0 C 100 % 1008,8 hPa 0,0 l/m 0 min 2 min 102 W/m 3,2 km/h (1 Bft) 95,74 %
25.08.2023 13:34 19,0 C 18,3 C 15,0 C 100 % 1008,8 hPa 0,0 l/m 0 min 2 min 108 W/m 6,4 km/h (2 Bft) 97,83 %
25.08.2023 13:36 19,1 C 18,3 C 15,0 C 100 % 1008,7 hPa 0,0 l/m 0 min 2 min 140 W/m 6,4 km/h (2 Bft) 97,87 %
25.08.2023 13:38 19,1 C 18,9 C 15,6 C 100 % 1008,5 hPa 0,0 l/m 0 min 2 min 173 W/m 6,4 km/h (2 Bft) 95,74 %
25.08.2023 13:40 19,1 C 18,9 C 15,6 C 100 % 1008,5 hPa 0,0 l/m 0 min 2 min 237 W/m 3,2 km/h (1 Bft) 95,74 %
25.08.2023 13:42 19,2 C 19,4 C 15,6 C 100 % 1008,4 hPa 0,0 l/m 0 min 0 min 333 W/m 6,4 km/h (2 Bft) 95,74 %
25.08.2023 13:44 19,3 C 19,4 C 15,6 C 100 % 1008,3 hPa 0,0 l/m 0 min 0 min 307 W/m 6,4 km/h (2 Bft) 97,87 %
25.08.2023 13:46 19,4 C 20,0 C 16,1 C 100 % 1008,2 hPa 0,0 l/m 2 min 0 min 522 W/m 3,2 km/h (1 Bft) 97,87 %
25.08.2023 13:48 19,6 C 20,6 C 16,1 C 100 % 1008,1 hPa 0,0 l/m 2 min 0 min 829 W/m 6,4 km/h (2 Bft) 97,83 %
25.08.2023 13:50 19,7 C 20,6 C 16,1 C 100 % 1008,2 hPa 0,0 l/m 0 min 0 min 313 W/m 6,4 km/h (2 Bft) 100,00 %
25.08.2023 13:52 19,8 C 20,6 C 16,1 C 100 % 1008,4 hPa 0,0 l/m 0 min 0 min 306 W/m 12,9 km/h (3 Bft) 97,87 %
25.08.2023 13:54 19,9 C 21,1 C 16,1 C 100 % 1008,5 hPa 0,0 l/m 2 min 0 min 630 W/m 6,4 km/h (2 Bft) 97,87 %
25.08.2023 13:56 20,0 C 22,2 C 16,1 C 100 % 1008,5 hPa 0,0 l/m 2 min 0 min 922 W/m 6,4 km/h (2 Bft) 97,87 %
25.08.2023 13:58 20,1 C 22,2 C 16,1 C 100 % 1008,6 hPa 0,0 l/m 2 min 0 min 928 W/m 19,3 km/h (3 Bft) 95,74 %
25.08.2023 14:00 20,0 C 21,7 C 16,1 C 100 % 1008,6 hPa 0,0 l/m 2 min 0 min 623 W/m 12,9 km/h (3 Bft) 97,83 %
25.08.2023 14:02 20,1 C 21,1 C 16,1 C 100 % 1008,7 hPa 0,0 l/m 0 min 0 min 362 W/m 16,1 km/h (3 Bft) 100,00 %
25.08.2023 14:04 20,1 C 21,1 C 16,7 C 100 % 1008,8 hPa 0,0 l/m 0 min 0 min 342 W/m 6,4 km/h (2 Bft) 97,87 %
25.08.2023 14:06 20,2 C 21,1 C 16,7 C 100 % 1008,7 hPa 0,0 l/m 0 min 0 min 327 W/m 9,7 km/h (2 Bft) 100,00 %
25.08.2023 14:08 20,2 C 21,1 C 16,7 C 100 % 1008,7 hPa 0,0 l/m 0 min 0 min 334 W/m 9,7 km/h (2 Bft) 100,00 %
25.08.2023 14:10 20,3 C 21,1 C 16,7 C 100 % 1008,6 hPa 0,0 l/m 0 min 0 min 331 W/m 3,2 km/h (1 Bft) 95,65 %
25.08.2023 14:12 20,3 C 20,6 C 16,7 C 100 % 1008,4 hPa 0,0 l/m 0 min 0 min 183 W/m 6,4 km/h (2 Bft) 97,87 %
25.08.2023 14:14 20,2 C 20,6 C 16,1 C 100 % 1008,4 hPa 0,0 l/m 0 min 0 min 155 W/m 6,4 km/h (2 Bft) 95,74 %
25.08.2023 14:16 20,2 C 20,0 C 16,1 C 100 % 1008,6 hPa 0,0 l/m 0 min 0 min 153 W/m 12,9 km/h (3 Bft) 95,65 %
25.08.2023 14:18 20,2 C 20,0 C 16,1 C 100 % 1008,6 hPa 0,0 l/m 0 min 0 min 149 W/m 9,7 km/h (2 Bft) 93,62 %
25.08.2023 14:20 20,2 C 20,0 C 16,1 C 100 % 1008,6 hPa 0,0 l/m 0 min 0 min 164 W/m 3,2 km/h (1 Bft) 95,74 %
25.08.2023 14:22 20,2 C 20,0 C 16,1 C 100 % 1008,7 hPa 0,0 l/m 0 min 0 min 196 W/m 9,7 km/h (2 Bft) 95,74 %
25.08.2023 14:24 20,2 C 20,0 C 16,1 C 100 % 1008,8 hPa 0,0 l/m 0 min 0 min 217 W/m 6,4 km/h (2 Bft) 95,74 %
25.08.2023 14:26 20,2 C 20,0 C 16,1 C 100 % 1008,8 hPa 0,0 l/m 0 min 0 min 244 W/m 6,4 km/h (2 Bft) 95,74 %
25.08.2023 14:28 20,2 C 21,1 C 16,7 C 100 % 1008,6 hPa 0,0 l/m 0 min 0 min 301 W/m 12,9 km/h (3 Bft) 95,74 %
25.08.2023 14:30 20,3 C 22,2 C 16,7 C 100 % 1008,5 hPa 0,0 l/m 2 min 0 min 561 W/m 6,4 km/h (2 Bft) 97,83 %
25.08.2023 14:32 20,4 C 21,7 C 16,7 C 100 % 1008,5 hPa 0,0 l/m 2 min 0 min 479 W/m 12,9 km/h (3 Bft) 93,62 %
25.08.2023 14:34 20,4 C 21,7 C 16,7 C 100 % 1008,6 hPa 0,0 l/m 0 min 0 min 305 W/m 9,7 km/h (2 Bft) 95,74 %
25.08.2023 14:36 20,5 C 21,1 C 16,7 C 100 % 1008,8 hPa 0,0 l/m 0 min 0 min 267 W/m 9,7 km/h (2 Bft) 93,62 %
25.08.2023 14:38 20,6 C 21,1 C 16,7 C 100 % 1008,7 hPa 0,0 l/m 0 min 0 min 257 W/m 6,4 km/h (2 Bft) 97,87 %
25.08.2023 14:40 20,6 C 21,7 C 16,7 C 100 % 1008,5 hPa 0,0 l/m 0 min 0 min 326 W/m 3,2 km/h (1 Bft) 93,62 %
25.08.2023 14:42 20,7 C 22,2 C 16,7 C 100 % 1008,4 hPa 0,0 l/m 2 min 0 min 376 W/m 12,9 km/h (3 Bft) 95,65 %
25.08.2023 14:44 20,7 C 22,2 C 16,7 C 100 % 1008,4 hPa 0,0 l/m 2 min 0 min 382 W/m 16,1 km/h (3 Bft) 97,87 %
25.08.2023 14:46 20,7 C 22,2 C 16,7 C 100 % 1008,4 hPa 0,0 l/m 0 min 0 min 325 W/m 12,9 km/h (3 Bft) 97,87 %
25.08.2023 14:48 20,7 C 22,2 C 16,7 C 100 % 1008,6 hPa 0,0 l/m 0 min 0 min 294 W/m 12,9 km/h (3 Bft) 97,87 %
25.08.2023 14:50 20,8 C 22,8 C 16,7 C 100 % 1008,5 hPa 0,0 l/m 0 min 0 min 294 W/m 12,9 km/h (3 Bft) 97,87 %
25.08.2023 14:52 20,8 C 22,8 C 16,7 C 100 % 1008,4 hPa 0,0 l/m 2 min 0 min 605 W/m 12,9 km/h (3 Bft) 95,74 %
25.08.2023 14:54 20,9 C 23,3 C 17,2 C 100 % 1008,4 hPa 0,0 l/m 2 min 0 min 626 W/m 16,1 km/h (3 Bft) 97,87 %
25.08.2023 14:56 21,1 C 24,4 C 17,2 C 100 % 1008,3 hPa 0,0 l/m 2 min 0 min 612 W/m 6,4 km/h (2 Bft) 95,65 %
25.08.2023 14:58 21,2 C 25,0 C 17,2 C 100 % 1008,3 hPa 0,0 l/m 2 min 0 min 717 W/m 9,7 km/h (2 Bft) 97,87 %
25.08.2023 15:00 21,2 C 25,6 C 17,2 C 100 % 1008,3 hPa 0,0 l/m 2 min 0 min 766 W/m 9,7 km/h (2 Bft) 100,00 %
25.08.2023 15:02 21,3 C 25,6 C 17,2 C 100 % 1008,3 hPa 0,0 l/m 2 min 0 min 702 W/m 3,2 km/h (1 Bft) 97,87 %
25.08.2023 15:04 21,4 C 25,0 C 17,2 C 100 % 1008,3 hPa 0,0 l/m 2 min 0 min 738 W/m 12,9 km/h (3 Bft) 97,87 %
25.08.2023 15:06 21,4 C 23,9 C 17,2 C 100 % 1008,3 hPa 0,0 l/m 0 min 0 min 295 W/m 9,7 km/h (2 Bft) 100,00 %
25.08.2023 15:08 21,4 C 24,4 C 17,2 C 99 % 1008,3 hPa 0,0 l/m 0 min 0 min 301 W/m 16,1 km/h (3 Bft) 100,00 %
25.08.2023 15:10 21,4 C 23,9 C 16,7 C 99 % 1008,3 hPa 0,0 l/m 0 min 0 min 301 W/m 16,1 km/h (3 Bft) 97,87 %
25.08.2023 15:12 21,4 C 23,9 C 17,2 C 99 % 1008,3 hPa 0,0 l/m 0 min 0 min 301 W/m 19,3 km/h (3 Bft) 97,87 %
25.08.2023 15:14 21,4 C 22,8 C 16,7 C 98 % 1008,4 hPa 0,0 l/m 0 min 0 min 301 W/m 16,1 km/h (3 Bft) 100,00 %
25.08.2023 15:16 21,5 C 22,8 C 16,7 C 98 % 1008,4 hPa 0,0 l/m 0 min 0 min 302 W/m 6,4 km/h (2 Bft) 100,00 %
25.08.2023 15:18 21,5 C 22,2 C 16,7 C 97 % 1008,4 hPa 0,0 l/m 0 min 0 min 296 W/m 16,1 km/h (3 Bft) 100,00 %
25.08.2023 15:20 21,5 C 22,2 C 16,7 C 97 % 1008,4 hPa 0,0 l/m 2 min 0 min 344 W/m 9,7 km/h (2 Bft) 100,00 %
25.08.2023 15:22 21,6 C 22,2 C 17,2 C 97 % 1008,4 hPa 0,0 l/m 2 min 0 min 369 W/m 9,7 km/h (2 Bft) 100,00 %
25.08.2023 15:24 21,7 C 22,8 C 17,2 C 97 % 1008,4 hPa 0,0 l/m 2 min 0 min 369 W/m 12,9 km/h (3 Bft) 100,00 %
25.08.2023 15:26 21,8 C 22,8 C 17,2 C 96 % 1008,4 hPa 0,0 l/m 2 min 0 min 414 W/m 19,3 km/h (3 Bft) 100,00 %
25.08.2023 15:28 21,8 C 23,3 C 17,2 C 96 % 1008,4 hPa 0,0 l/m 2 min 0 min 514 W/m 9,7 km/h (2 Bft) 100,00 %
25.08.2023 15:30 21,9 C 23,3 C 17,2 C 95 % 1008,3 hPa 0,0 l/m 2 min 0 min 432 W/m 12,9 km/h (3 Bft) 100,00 %
25.08.2023 15:32 22,1 C 23,9 C 17,2 C 95 % 1008,3 hPa 0,0 l/m 2 min 0 min 399 W/m 9,7 km/h (2 Bft) 95,74 %
25.08.2023 15:34 22,1 C 23,9 C 17,2 C 95 % 1008,3 hPa 0,0 l/m 2 min 0 min 378 W/m 12,9 km/h (3 Bft) 100,00 %
25.08.2023 15:36 22,2 C 23,9 C 17,2 C 94 % 1008,2 hPa 0,0 l/m 2 min 0 min 368 W/m 16,1 km/h (3 Bft) 100,00 %
25.08.2023 15:38 22,3 C 23,9 C 17,2 C 94 % 1008,2 hPa 0,0 l/m 2 min 0 min 448 W/m 16,1 km/h (3 Bft) 100,00 %
25.08.2023 15:40 22,3 C 24,4 C 17,2 C 94 % 1008,1 hPa 0,0 l/m 2 min 0 min 859 W/m 12,9 km/h (3 Bft) 100,00 %
25.08.2023 15:42 22,4 C 24,4 C 17,2 C 93 % 1008,1 hPa 0,0 l/m 2 min 0 min 837 W/m 16,1 km/h (3 Bft) 100,00 %
25.08.2023 15:44 22,6 C 24,4 C 17,2 C 92 % 1008,1 hPa 0,0 l/m 2 min 0 min 739 W/m 16,1 km/h (3 Bft) 100,00 %
25.08.2023 15:46 22,6 C 24,4 C 17,2 C 92 % 1008,1 hPa 0,0 l/m 2 min 0 min 713 W/m 12,9 km/h (3 Bft) 100,00 %
25.08.2023 15:48 22,7 C 25,0 C 17,2 C 92 % 1008,2 hPa 0,0 l/m 2 min 0 min 739 W/m 12,9 km/h (3 Bft) 100,00 %
25.08.2023 15:50 22,9 C 25,0 C 17,2 C 91 % 1008,1 hPa 0,0 l/m 2 min 0 min 744 W/m 6,4 km/h (2 Bft) 100,00 %
25.08.2023 15:52 22,9 C 26,1 C 17,2 C 91 % 1008,1 hPa 0,0 l/m 2 min 0 min 728 W/m 12,9 km/h (3 Bft) 100,00 %
25.08.2023 15:54 23,1 C 25,6 C 17,2 C 90 % 1008,1 hPa 0,0 l/m 2 min 0 min 727 W/m 6,4 km/h (2 Bft) 100,00 %
25.08.2023 15:56 23,1 C 25,6 C 17,2 C 90 % 1008,1 hPa 0,0 l/m 2 min 0 min 669 W/m 6,4 km/h (2 Bft) 100,00 %
25.08.2023 15:58 23,2 C 25,0 C 17,2 C 89 % 1008,1 hPa 0,0 l/m 2 min 0 min 661 W/m 12,9 km/h (3 Bft) 100,00 %
25.08.2023 16:00 23,3 C 25,0 C 17,2 C 89 % 1008,1 hPa 0,0 l/m 2 min 0 min 409 W/m 19,3 km/h (3 Bft) 100,00 %
25.08.2023 16:02 23,4 C 25,0 C 17,8 C 89 % 1008,1 hPa 0,0 l/m 2 min 0 min 391 W/m 12,9 km/h (3 Bft) 97,87 %
25.08.2023 16:04 23,6 C 25,0 C 17,2 C 89 % 1008,1 hPa 0,0 l/m 2 min 0 min 418 W/m 16,1 km/h (3 Bft) 100,00 %
25.08.2023 16:06 23,6 C 24,4 C 17,2 C 88 % 1008,0 hPa 0,0 l/m 2 min 0 min 441 W/m 16,1 km/h (3 Bft) 97,87 %
25.08.2023 16:08 23,6 C 24,4 C 17,2 C 88 % 1008,0 hPa 0,0 l/m 2 min 0 min 376 W/m 6,4 km/h (2 Bft) 100,00 %
25.08.2023 16:10 23,6 C 24,4 C 17,2 C 88 % 1008,0 hPa 0,0 l/m 2 min 0 min 338 W/m 12,9 km/h (3 Bft) 97,87 %
25.08.2023 16:12 23,7 C 24,4 C 17,2 C 87 % 1007,9 hPa 0,0 l/m 2 min 0 min 435 W/m 6,4 km/h (2 Bft) 97,83 %
25.08.2023 16:14 23,7 C 23,9 C 17,2 C 87 % 1008,0 hPa 0,0 l/m 2 min 0 min 537 W/m 16,1 km/h (3 Bft) 100,00 %
25.08.2023 16:16 23,7 C 23,9 C 17,8 C 87 % 1008,0 hPa 0,0 l/m 0 min 0 min 212 W/m 12,9 km/h (3 Bft) 100,00 %
25.08.2023 16:18 23,7 C 23,9 C 17,8 C 87 % 1008,0 hPa 0,0 l/m 0 min 0 min 211 W/m 6,4 km/h (2 Bft) 97,87 %
25.08.2023 16:20 23,7 C 23,9 C 18,3 C 87 % 1007,9 hPa 0,0 l/m 0 min 0 min 271 W/m 12,9 km/h (3 Bft) 95,74 %
25.08.2023 16:22 23,7 C 23,9 C 18,3 C 87 % 1008,0 hPa 0,0 l/m 0 min 0 min 222 W/m 12,9 km/h (3 Bft) 95,74 %
25.08.2023 16:24 23,7 C 23,3 C 18,3 C 86 % 1008,0 hPa 0,0 l/m 0 min 0 min 232 W/m 6,4 km/h (2 Bft) 93,62 %
25.08.2023 16:26 23,7 C 23,9 C 18,3 C 87 % 1008,0 hPa 0,0 l/m 0 min 0 min 209 W/m 3,2 km/h (1 Bft) 95,65 %
25.08.2023 16:28 23,7 C 23,3 C 18,3 C 87 % 1008,1 hPa 0,0 l/m 0 min 0 min 170 W/m 6,4 km/h (2 Bft) 95,74 %
25.08.2023 16:30 23,7 C 23,3 C 18,3 C 87 % 1008,1 hPa 0,0 l/m 0 min 0 min 161 W/m 6,4 km/h (2 Bft) 95,74 %
25.08.2023 16:32 23,7 C 23,3 C 18,3 C 86 % 1008,2 hPa 0,0 l/m 0 min 0 min 179 W/m 12,9 km/h (3 Bft) 95,74 %
25.08.2023 16:34 23,6 C 22,8 C 18,3 C 86 % 1008,2 hPa 0,0 l/m 0 min 0 min 160 W/m 12,9 km/h (3 Bft) 95,74 %
25.08.2023 16:36 23,6 C 22,8 C 18,3 C 87 % 1008,3 hPa 0,0 l/m 0 min 0 min 108 W/m 16,1 km/h (3 Bft) 95,74 %
25.08.2023 16:38 23,6 C 22,8 C 18,3 C 87 % 1008,3 hPa 0,0 l/m 0 min 0 min 95 W/m 12,9 km/h (3 Bft) 95,65 %
25.08.2023 16:40 23,6 C 22,8 C 18,3 C 88 % 1008,3 hPa 0,0 l/m 0 min 0 min 133 W/m 12,9 km/h (3 Bft) 95,74 %
25.08.2023 16:42 23,6 C 22,8 C 18,3 C 88 % 1008,2 hPa 0,0 l/m 0 min 0 min 146 W/m 19,3 km/h (3 Bft) 95,74 %
25.08.2023 16:44 23,6 C 23,3 C 18,3 C 88 % 1008,2 hPa 0,0 l/m 0 min 0 min 146 W/m 12,9 km/h (3 Bft) 95,74 %
25.08.2023 16:46 23,6 C 23,3 C 18,3 C 88 % 1008,1 hPa 0,0 l/m 0 min 0 min 164 W/m 12,9 km/h (3 Bft) 95,74 %
25.08.2023 16:48 23,6 C 23,3 C 18,3 C 88 % 1008,1 hPa 0,0 l/m 0 min 0 min 182 W/m 6,4 km/h (2 Bft) 95,74 %
25.08.2023 16:50 23,6 C 23,3 C 18,3 C 88 % 1008,1 hPa 0,0 l/m 0 min 0 min 191 W/m 6,4 km/h (2 Bft) 93,48 %
25.08.2023 16:52 23,5 C 23,3 C 18,3 C 88 % 1008,0 hPa 0,0 l/m 2 min 0 min 279 W/m 12,9 km/h (3 Bft) 95,74 %
25.08.2023 16:54 23,6 C 23,9 C 18,3 C 88 % 1008,0 hPa 0,0 l/m 0 min 0 min 223 W/m 9,7 km/h (2 Bft) 93,62 %
25.08.2023 16:56 23,6 C 23,9 C 18,3 C 88 % 1008,0 hPa 0,0 l/m 0 min 0 min 198 W/m 3,2 km/h (1 Bft) 93,62 %
25.08.2023 16:58 23,6 C 23,9 C 18,3 C 89 % 1008,0 hPa 0,0 l/m 0 min 0 min 182 W/m 6,4 km/h (2 Bft) 95,74 %
25.08.2023 17:00 23,6 C 23,3 C 18,3 C 88 % 1008,0 hPa 0,0 l/m 0 min 0 min 117 W/m 6,4 km/h (2 Bft) 95,74 %
25.08.2023 17:02 23,6 C 23,3 C 18,3 C 88 % 1008,0 hPa 0,0 l/m 0 min 0 min 113 W/m 6,4 km/h (2 Bft) 95,74 %
25.08.2023 17:04 23,6 C 23,3 C 17,8 C 88 % 1008,1 hPa 0,0 l/m 0 min 0 min 129 W/m 3,2 km/h (1 Bft) 96,00 %
25.08.2023 17:06 23,6 C 23,3 C 18,3 C 89 % 1008,0 hPa 0,0 l/m 0 min 0 min 151 W/m 6,4 km/h (2 Bft) 95,74 %
25.08.2023 17:08 23,6 C 23,3 C 18,3 C 89 % 1008,0 hPa 0,0 l/m 0 min 0 min 155 W/m 6,4 km/h (2 Bft) 95,74 %
25.08.2023 17:10 23,6 C 23,3 C 18,3 C 89 % 1008,0 hPa 0,0 l/m 0 min 0 min 153 W/m 6,4 km/h (2 Bft) 93,62 %
25.08.2023 17:12 23,6 C 23,3 C 18,3 C 89 % 1008,0 hPa 0,0 l/m 0 min 0 min 169 W/m 6,4 km/h (2 Bft) 97,87 %
25.08.2023 17:14 23,6 C 23,3 C 18,3 C 89 % 1008,0 hPa 0,0 l/m 0 min 0 min 210 W/m 3,2 km/h (1 Bft) 97,87 %
25.08.2023 17:16 23,7 C 23,9 C 18,3 C 89 % 1008,0 hPa 0,0 l/m 2 min 0 min 265 W/m 6,4 km/h (2 Bft) 97,83 %
25.08.2023 17:18 23,7 C 23,9 C 18,3 C 89 % 1008,0 hPa 0,0 l/m 2 min 0 min 272 W/m 6,4 km/h (2 Bft) 97,87 %
25.08.2023 17:20 23,7 C 23,9 C 18,3 C 89 % 1008,0 hPa 0,0 l/m 0 min 0 min 97 W/m 9,7 km/h (2 Bft) 97,87 %
25.08.2023 17:22 23,7 C 23,3 C 18,3 C 88 % 1008,1 hPa 0,0 l/m 0 min 0 min 82 W/m 9,7 km/h (2 Bft) 97,14 %
25.08.2023 17:24 23,7 C 23,3 C 18,3 C 88 % 1008,2 hPa 0,0 l/m 0 min 0 min 75 W/m 12,9 km/h (3 Bft) 98,31 %
25.08.2023 17:26 23,6 C 22,8 C 18,3 C 88 % 1008,1 hPa 0,0 l/m 0 min 0 min 61 W/m 6,4 km/h (2 Bft) 97,87 %
25.08.2023 17:28 23,6 C 22,8 C 18,3 C 88 % 1008,1 hPa 0,0 l/m 0 min 0 min 80 W/m 9,7 km/h (2 Bft) 97,14 %
25.08.2023 17:30 23,6 C 22,8 C 18,3 C 88 % 1008,1 hPa 0,0 l/m 0 min 0 min 85 W/m 9,7 km/h (2 Bft) 98,28 %
25.08.2023 17:32 23,5 C 22,8 C 18,3 C 88 % 1008,1 hPa 0,0 l/m 0 min 0 min 85 W/m 6,4 km/h (2 Bft) 100,00 %
25.08.2023 17:34 23,5 C 22,8 C 18,3 C 89 % 1008,1 hPa 0,0 l/m 0 min 0 min 95 W/m 3,2 km/h (1 Bft) 100,00 %
25.08.2023 17:36 23,5 C 22,8 C 18,3 C 89 % 1008,0 hPa 0,0 l/m 0 min 0 min 111 W/m 6,4 km/h (2 Bft) 98,31 %
25.08.2023 17:38 23,5 C 22,8 C 17,8 C 89 % 1008,1 hPa 0,2 l/m 0 min 2 min 121 W/m 9,7 km/h (2 Bft) 100,00 %
25.08.2023 17:40 23,5 C 22,8 C 17,8 C 90 % 1008,1 hPa 0,0 l/m 0 min 2 min 163 W/m 9,7 km/h (2 Bft) 100,00 %
25.08.2023 17:42 23,5 C 22,2 C 17,2 C 90 % 1008,0 hPa 0,0 l/m 0 min 2 min 161 W/m 3,2 km/h (1 Bft) 100,00 %
25.08.2023 17:44 23,4 C 22,2 C 17,2 C 90 % 1008,0 hPa 0,0 l/m 0 min 0 min 130 W/m 9,7 km/h (2 Bft) 97,83 %
25.08.2023 17:46 23,4 C 22,2 C 17,2 C 91 % 1008,0 hPa 0,0 l/m 0 min 0 min 118 W/m 3,2 km/h (1 Bft) 100,00 %
25.08.2023 17:48 23,4 C 22,2 C 17,2 C 91 % 1008,0 hPa 0,0 l/m 0 min 0 min 126 W/m 3,2 km/h (1 Bft) 100,00 %
25.08.2023 17:50 23,4 C 22,2 C 17,2 C 91 % 1007,9 hPa 0,0 l/m 0 min 0 min 92 W/m 0,0 km/h (0 Bft) 100,00 %
25.08.2023 17:52 23,4 C 22,2 C 17,2 C 91 % 1007,9 hPa 0,0 l/m 0 min 0 min 70 W/m 3,2 km/h (1 Bft) 100,00 %
25.08.2023 17:54 23,4 C 22,2 C 17,2 C 91 % 1007,9 hPa 0,0 l/m 0 min 0 min 92 W/m 3,2 km/h (1 Bft) 100,00 %
25.08.2023 17:56 23,4 C 22,8 C 17,8 C 91 % 1007,9 hPa 0,0 l/m 2 min 0 min 202 W/m 6,4 km/h (2 Bft) 97,87 %
25.08.2023 17:58 23,3 C 23,3 C 17,8 C 92 % 1007,9 hPa 0,0 l/m 2 min 0 min 288 W/m 3,2 km/h (1 Bft) 100,00 %
25.08.2023 18:00 23,3 C 25,0 C 17,8 C 92 % 1007,8 hPa 0,0 l/m 2 min 0 min 401 W/m 0,0 km/h (0 Bft) 100,00 %
25.08.2023 18:02 23,4 C 26,1 C 18,3 C 92 % 1007,9 hPa 0,0 l/m 2 min 0 min 460 W/m 3,2 km/h (1 Bft) 100,00 %
25.08.2023 18:04 23,5 C 27,2 C 18,3 C 93 % 1007,9 hPa 0,0 l/m 2 min 0 min 462 W/m 6,4 km/h (2 Bft) 100,00 %
25.08.2023 18:08 23,5 C 26,1 C 17,8 C 92 % 1007,9 hPa 0,0 l/m 4 min 0 min 313 W/m 6,4 km/h (2 Bft) 98,97 %
25.08.2023 18:10 23,5 C 25,6 C 17,8 C 92 % 1007,9 hPa 0,0 l/m 2 min 0 min 192 W/m 0,0 km/h (0 Bft) 100,00 %
25.08.2023 18:12 23,6 C 25,6 C 17,8 C 92 % 1007,9 hPa 0,0 l/m 2 min 0 min 235 W/m 3,2 km/h (1 Bft) 100,00 %
25.08.2023 18:14 23,6 C 25,6 C 18,3 C 92 % 1007,9 hPa 0,0 l/m 2 min 0 min 273 W/m 12,9 km/h (3 Bft) 100,00 %
25.08.2023 18:16 23,6 C 25,0 C 17,8 C 91 % 1007,9 hPa 0,0 l/m 2 min 0 min 224 W/m 3,2 km/h (1 Bft) 97,87 %
25.08.2023 18:18 23,6 C 24,4 C 17,8 C 91 % 1007,9 hPa 0,0 l/m 0 min 0 min 153 W/m 6,4 km/h (2 Bft) 100,00 %
25.08.2023 18:20 23,6 C 23,9 C 17,2 C 90 % 1007,8 hPa 0,0 l/m 0 min 0 min 159 W/m 12,9 km/h (3 Bft) 100,00 %
25.08.2023 18:22 23,6 C 23,9 C 17,2 C 90 % 1007,7 hPa 0,0 l/m 0 min 0 min 138 W/m 6,4 km/h (2 Bft) 95,65 %
25.08.2023 18:24 23,5 C 23,9 C 17,2 C 90 % 1007,8 hPa 0,0 l/m 0 min 0 min 126 W/m 3,2 km/h (1 Bft) 97,87 %
25.08.2023 18:26 23,4 C 23,3 C 17,2 C 89 % 1007,9 hPa 0,0 l/m 0 min 0 min 104 W/m 6,4 km/h (2 Bft) 97,87 %
25.08.2023 18:28 23,4 C 23,3 C 17,2 C 90 % 1007,9 hPa 0,0 l/m 0 min 0 min 87 W/m 6,4 km/h (2 Bft) 95,74 %
25.08.2023 18:30 23,4 C 22,8 C 17,2 C 90 % 1008,0 hPa 0,0 l/m 0 min 0 min 66 W/m 6,4 km/h (2 Bft) 97,87 %
25.08.2023 18:32 23,3 C 22,8 C 17,2 C 89 % 1008,0 hPa 0,0 l/m 0 min 0 min 57 W/m 9,7 km/h (2 Bft) 97,87 %
25.08.2023 18:34 23,3 C 22,2 C 17,2 C 89 % 1008,0 hPa 0,0 l/m 0 min 0 min 71 W/m 6,4 km/h (2 Bft) 97,83 %
25.08.2023 18:36 23,2 C 22,2 C 17,2 C 89 % 1008,1 hPa 0,0 l/m 0 min 0 min 94 W/m 16,1 km/h (3 Bft) 97,87 %
25.08.2023 18:38 23,2 C 22,2 C 16,7 C 89 % 1008,0 hPa 0,0 l/m 0 min 0 min 104 W/m 12,9 km/h (3 Bft) 97,87 %
25.08.2023 18:40 23,1 C 22,2 C 16,7 C 89 % 1008,0 hPa 0,2 l/m 0 min 0 min 100 W/m 12,9 km/h (3 Bft) 97,87 %
25.08.2023 18:42 23,1 C 22,2 C 17,2 C 89 % 1008,0 hPa 0,0 l/m 0 min 0 min 104 W/m 9,7 km/h (2 Bft) 97,87 %
25.08.2023 18:44 23,1 C 22,2 C 17,2 C 89 % 1007,9 hPa 0,0 l/m 0 min 0 min 104 W/m 3,2 km/h (1 Bft) 95,74 %
25.08.2023 18:46 23,0 C 22,2 C 16,7 C 90 % 1008,0 hPa 0,0 l/m 0 min 0 min 98 W/m 6,4 km/h (2 Bft) 97,87 %
25.08.2023 18:48 22,9 C 22,2 C 16,7 C 89 % 1008,0 hPa 0,0 l/m 0 min 0 min 104 W/m 12,9 km/h (3 Bft) 97,83 %
25.08.2023 18:50 22,9 C 22,2 C 16,7 C 89 % 1007,9 hPa 0,0 l/m 0 min 0 min 105 W/m 6,4 km/h (2 Bft) 97,87 %
25.08.2023 18:52 22,9 C 22,2 C 16,7 C 90 % 1007,9 hPa 0,0 l/m 0 min 0 min 92 W/m 6,4 km/h (2 Bft) 97,87 %
25.08.2023 18:54 22,9 C 22,2 C 17,2 C 90 % 1007,8 hPa 0,0 l/m 0 min 0 min 79 W/m 3,2 km/h (1 Bft) 97,87 %
25.08.2023 18:56 22,9 C 22,2 C 17,2 C 90 % 1007,8 hPa 0,0 l/m 0 min 0 min 71 W/m 3,2 km/h (1 Bft) 95,74 %
25.08.2023 18:58 22,8 C 22,2 C 17,2 C 90 % 1007,8 hPa 0,0 l/m 0 min 0 min 67 W/m 6,4 km/h (2 Bft) 100,00 %
25.08.2023 19:00 22,8 C 22,2 C 16,7 C 90 % 1007,7 hPa 0,0 l/m 0 min 0 min 70 W/m 3,2 km/h (1 Bft) 100,00 %
25.08.2023 19:02 22,8 C 22,2 C 17,2 C 90 % 1007,8 hPa 0,0 l/m 0 min 0 min 74 W/m 9,7 km/h (2 Bft) 97,83 %
25.08.2023 19:04 22,8 C 22,2 C 17,2 C 90 % 1007,7 hPa 0,0 l/m 0 min 0 min 73 W/m 9,7 km/h (2 Bft) 100,00 %
25.08.2023 19:06 22,7 C 22,2 C 16,7 C 90 % 1007,7 hPa 0,0 l/m 0 min 0 min 65 W/m 12,9 km/h (3 Bft) 98,33 %
25.08.2023 19:08 22,7 C 22,2 C 16,7 C 90 % 1007,7 hPa 0,0 l/m 0 min 0 min 59 W/m 9,7 km/h (2 Bft) 97,14 %
25.08.2023 19:10 22,7 C 21,7 C 16,7 C 90 % 1007,8 hPa 0,0 l/m 0 min 0 min 58 W/m 6,4 km/h (2 Bft) 100,00 %
25.08.2023 19:12 22,7 C 21,7 C 16,7 C 90 % 1007,8 hPa 0,0 l/m 0 min 0 min 57 W/m 12,9 km/h (3 Bft) 100,00 %
25.08.2023 19:14 22,6 C 21,7 C 16,7 C 90 % 1007,9 hPa 0,0 l/m 0 min 0 min 66 W/m 6,4 km/h (2 Bft) 100,00 %
25.08.2023 19:16 22,6 C 21,7 C 16,7 C 90 % 1007,8 hPa 0,0 l/m 0 min 0 min 69 W/m 6,4 km/h (2 Bft) 97,87 %
25.08.2023 19:18 22,6 C 21,7 C 16,7 C 90 % 1007,9 hPa 0,0 l/m 0 min 0 min 68 W/m 6,4 km/h (2 Bft) 100,00 %
25.08.2023 19:20 22,6 C 21,7 C 16,7 C 90 % 1007,9 hPa 0,0 l/m 0 min 0 min 75 W/m 6,4 km/h (2 Bft) 97,87 %
25.08.2023 19:22 22,6 C 22,2 C 16,7 C 91 % 1007,8 hPa 0,0 l/m 0 min 0 min 77 W/m 9,7 km/h (2 Bft) 100,00 %
25.08.2023 19:24 22,6 C 21,7 C 16,7 C 90 % 1007,8 hPa 0,0 l/m 0 min 0 min 70 W/m 6,4 km/h (2 Bft) 95,74 %
25.08.2023 19:26 22,6 C 21,7 C 16,7 C 90 % 1007,9 hPa 0,0 l/m 0 min 0 min 64 W/m 12,9 km/h (3 Bft) 97,87 %
25.08.2023 19:28 22,5 C 21,7 C 16,7 C 90 % 1007,9 hPa 0,0 l/m 0 min 0 min 59 W/m 12,9 km/h (3 Bft) 95,74 %
25.08.2023 19:30 22,4 C 21,7 C 16,7 C 90 % 1007,8 hPa 0,0 l/m 0 min 0 min 55 W/m 6,4 km/h (2 Bft) 95,65 %
25.08.2023 19:32 22,4 C 21,7 C 16,7 C 90 % 1007,9 hPa 0,0 l/m 0 min 0 min 51 W/m 9,7 km/h (2 Bft) 93,62 %
25.08.2023 19:34 22,4 C 21,7 C 16,7 C 90 % 1007,9 hPa 0,0 l/m 0 min 0 min 48 W/m 6,4 km/h (2 Bft) 95,74 %
25.08.2023 19:36 22,4 C 21,7 C 16,7 C 90 % 1007,9 hPa 0,0 l/m 0 min 0 min 48 W/m 6,4 km/h (2 Bft) 95,74 %
25.08.2023 19:38 22,4 C 21,7 C 16,7 C 90 % 1007,9 hPa 0,0 l/m 0 min 0 min 45 W/m 3,2 km/h (1 Bft) 95,74 %
25.08.2023 19:40 22,3 C 21,7 C 16,7 C 91 % 1007,9 hPa 0,0 l/m 0 min 0 min 44 W/m 12,9 km/h (3 Bft) 95,74 %
25.08.2023 19:42 22,3 C 21,1 C 16,7 C 90 % 1007,9 hPa 0,0 l/m 0 min 0 min 47 W/m 12,9 km/h (3 Bft) 93,62 %
25.08.2023 19:44 22,3 C 21,1 C 16,7 C 90 % 1008,0 hPa 0,0 l/m 0 min 0 min 52 W/m 6,4 km/h (2 Bft) 95,65 %
25.08.2023 19:46 22,2 C 21,1 C 16,1 C 90 % 1008,1 hPa 0,0 l/m 0 min 0 min 54 W/m 12,9 km/h (3 Bft) 95,74 %
25.08.2023 19:48 22,2 C 21,1 C 16,1 C 90 % 1008,1 hPa 0,0 l/m 0 min 0 min 53 W/m 9,7 km/h (2 Bft) 93,62 %
25.08.2023 19:50 22,2 C 21,1 C 16,1 C 90 % 1008,0 hPa 0,0 l/m 2 min 0 min 53 W/m 6,4 km/h (2 Bft) 93,62 %
25.08.2023 19:52 22,1 C 21,1 C 16,1 C 90 % 1008,1 hPa 0,0 l/m 2 min 0 min 53 W/m 12,9 km/h (3 Bft) 95,74 %
25.08.2023 19:54 22,1 C 21,1 C 16,1 C 90 % 1008,0 hPa 0,0 l/m 2 min 0 min 50 W/m 6,4 km/h (2 Bft) 95,74 %
25.08.2023 19:56 22,1 C 21,1 C 16,1 C 90 % 1008,0 hPa 0,0 l/m 2 min 0 min 47 W/m 3,2 km/h (1 Bft) 95,83 %
25.08.2023 19:58 22,1 C 21,1 C 16,1 C 90 % 1008,0 hPa 0,0 l/m 2 min 0 min 46 W/m 6,4 km/h (2 Bft) 95,74 %
25.08.2023 20:00 22,1 C 21,1 C 16,1 C 90 % 1008,0 hPa 0,0 l/m 2 min 0 min 45 W/m 6,4 km/h (2 Bft) 95,74 %
25.08.2023 20:02 22,1 C 21,1 C 16,1 C 90 % 1008,0 hPa 0,0 l/m 2 min 0 min 42 W/m 6,4 km/h (2 Bft) 95,74 %
25.08.2023 20:04 22,0 C 21,1 C 16,1 C 90 % 1008,0 hPa 0,0 l/m 2 min 0 min 40 W/m 12,9 km/h (3 Bft) 93,75 %
25.08.2023 20:06 22,0 C 21,1 C 16,1 C 90 % 1008,2 hPa 0,0 l/m 2 min 0 min 37 W/m 9,7 km/h (2 Bft) 93,88 %
25.08.2023 20:08 21,9 C 21,1 C 16,1 C 90 % 1008,1 hPa 0,0 l/m 2 min 0 min 35 W/m 3,2 km/h (1 Bft) 93,48 %
25.08.2023 20:10 21,9 C 21,1 C 16,1 C 90 % 1008,2 hPa 0,0 l/m 2 min 0 min 32 W/m 9,7 km/h (2 Bft) 93,62 %
25.08.2023 20:12 21,9 C 21,1 C 16,1 C 90 % 1008,1 hPa 0,0 l/m 2 min 0 min 29 W/m 9,7 km/h (2 Bft) 97,87 %
25.08.2023 20:14 21,9 C 21,1 C 16,1 C 90 % 1008,1 hPa 0,0 l/m 2 min 0 min 27 W/m 6,4 km/h (2 Bft) 97,87 %
25.08.2023 20:16 21,8 C 21,1 C 16,1 C 90 % 1008,2 hPa 0,0 l/m 2 min 0 min 26 W/m 6,4 km/h (2 Bft) 97,87 %
25.08.2023 20:18 21,8 C 21,1 C 16,1 C 90 % 1008,1 hPa 0,0 l/m 2 min 0 min 25 W/m 6,4 km/h (2 Bft) 100,00 %
25.08.2023 20:20 21,7 C 20,6 C 15,6 C 90 % 1008,2 hPa 0,0 l/m 2 min 0 min 24 W/m 16,1 km/h (3 Bft) 97,83 %
25.08.2023 20:22 21,7 C 20,6 C 15,6 C 89 % 1008,2 hPa 0,0 l/m 2 min 0 min 23 W/m 9,7 km/h (2 Bft) 97,87 %
25.08.2023 20:24 21,7 C 20,6 C 15,6 C 89 % 1008,3 hPa 0,0 l/m 2 min 0 min 21 W/m 12,9 km/h (3 Bft) 97,87 %
25.08.2023 20:26 21,6 C 20,6 C 15,6 C 89 % 1008,3 hPa 0,0 l/m 0 min 0 min 12 W/m 6,4 km/h (2 Bft) 97,87 %
25.08.2023 20:28 21,6 C 20,6 C 15,6 C 89 % 1008,3 hPa 0,0 l/m 0 min 0 min 19 W/m 3,2 km/h (1 Bft) 97,87 %
25.08.2023 20:30 21,6 C 20,6 C 15,6 C 89 % 1008,4 hPa 0,0 l/m 0 min 0 min 19 W/m 3,2 km/h (1 Bft) 97,87 %
25.08.2023 20:32 21,6 C 20,6 C 15,6 C 89 % 1008,4 hPa 0,0 l/m 0 min 0 min 17 W/m 3,2 km/h (1 Bft) 97,87 %
25.08.2023 20:34 21,6 C 20,6 C 15,6 C 89 % 1008,4 hPa 0,0 l/m 0 min 0 min 14 W/m 6,4 km/h (2 Bft) 95,74 %
25.08.2023 20:36 21,5 C 20,6 C 15,6 C 89 % 1008,4 hPa 0,0 l/m 0 min 0 min 12 W/m 6,4 km/h (2 Bft) 97,83 %
25.08.2023 20:38 21,5 C 20,6 C 15,6 C 89 % 1008,4 hPa 0,0 l/m 0 min 0 min 9 W/m 9,7 km/h (2 Bft) 97,87 %
25.08.2023 20:40 21,4 C 20,6 C 15,6 C 89 % 1008,5 hPa 0,0 l/m 0 min 0 min 6 W/m 6,4 km/h (2 Bft) 95,74 %
25.08.2023 20:42 21,4 C 20,6 C 15,6 C 89 % 1008,5 hPa 0,0 l/m 0 min 0 min 1 W/m 6,4 km/h (2 Bft) 97,87 %
25.08.2023 20:44 21,3 C 20,0 C 15,6 C 89 % 1008,5 hPa 0,0 l/m 0 min 0 min 0 W/m 6,4 km/h (2 Bft) 97,87 %
25.08.2023 20:46 21,3 C 20,0 C 15,6 C 89 % 1008,5 hPa 0,0 l/m 0 min 0 min 0 W/m 6,4 km/h (2 Bft) 97,87 %
25.08.2023 20:48 21,3 C 20,0 C 15,6 C 89 % 1008,6 hPa 0,0 l/m 0 min 0 min 0 W/m 12,9 km/h (3 Bft) 97,83 %
25.08.2023 20:50 21,2 C 20,0 C 15,6 C 89 % 1008,6 hPa 0,0 l/m 0 min 0 min 0 W/m 6,4 km/h (2 Bft) 100,00 %
25.08.2023 20:52 21,2 C 20,0 C 15,6 C 89 % 1008,6 hPa 0,0 l/m 0 min 0 min 0 W/m 6,4 km/h (2 Bft) 100,00 %
25.08.2023 20:54 21,1 C 20,0 C 15,6 C 89 % 1008,6 hPa 0,0 l/m 0 min 0 min 0 W/m 6,4 km/h (2 Bft) 100,00 %
25.08.2023 20:56 21,1 C 20,0 C 15,6 C 89 % 1008,6 hPa 0,0 l/m 0 min 0 min 0 W/m 6,4 km/h (2 Bft) 100,00 %
25.08.2023 20:58 21,1 C 20,0 C 15,6 C 90 % 1008,7 hPa 0,0 l/m 0 min 0 min 0 W/m 6,4 km/h (2 Bft) 100,00 %
25.08.2023 21:00 21,0 C 20,0 C 15,6 C 90 % 1008,7 hPa 0,0 l/m 0 min 0 min 0 W/m 6,4 km/h (2 Bft) 97,83 %
25.08.2023 21:02 21,0 C 20,0 C 16,1 C 90 % 1008,7 hPa 0,0 l/m 0 min 0 min 0 W/m 6,4 km/h (2 Bft) 97,87 %
25.08.2023 21:04 20,9 C 20,0 C 16,1 C 90 % 1008,6 hPa 0,0 l/m 0 min 0 min 0 W/m 6,4 km/h (2 Bft) 100,00 %
25.08.2023 21:06 20,9 C 19,4 C 16,1 C 90 % 1008,7 hPa 0,0 l/m 0 min 0 min 0 W/m 12,9 km/h (3 Bft) 100,00 %
25.08.2023 21:08 20,8 C 19,4 C 16,1 C 90 % 1008,7 hPa 0,0 l/m 0 min 0 min 0 W/m 6,4 km/h (2 Bft) 97,14 %
25.08.2023 21:10 20,8 C 19,4 C 16,1 C 90 % 1008,8 hPa 0,0 l/m 0 min 0 min 0 W/m 3,2 km/h (1 Bft) 100,00 %
25.08.2023 21:12 20,8 C 19,4 C 16,1 C 90 % 1008,9 hPa 0,0 l/m 0 min 0 min 0 W/m 6,4 km/h (2 Bft) 100,00 %
25.08.2023 21:14 20,8 C 19,4 C 16,1 C 90 % 1008,9 hPa 0,0 l/m 0 min 0 min 0 W/m 6,4 km/h (2 Bft) 100,00 %
25.08.2023 21:16 20,8 C 19,4 C 16,1 C 90 % 1008,9 hPa 0,0 l/m 0 min 0 min 0 W/m 3,2 km/h (1 Bft) 100,00 %
25.08.2023 21:18 20,7 C 19,4 C 16,1 C 90 % 1008,9 hPa 0,0 l/m 0 min 0 min 0 W/m 3,2 km/h (1 Bft) 100,00 %
25.08.2023 21:20 20,7 C 19,4 C 16,1 C 90 % 1008,9 hPa 0,0 l/m 0 min 0 min 0 W/m 3,2 km/h (1 Bft) 100,00 %
25.08.2023 21:22 20,7 C 19,4 C 16,1 C 90 % 1008,9 hPa 0,0 l/m 0 min 0 min 0 W/m 6,4 km/h (2 Bft) 97,87 %
25.08.2023 21:24 20,6 C 19,4 C 16,1 C 90 % 1008,8 hPa 0,0 l/m 0 min 0 min 0 W/m 3,2 km/h (1 Bft) 100,00 %
25.08.2023 21:26 20,6 C 19,4 C 16,1 C 90 % 1008,8 hPa 0,0 l/m 0 min 0 min 0 W/m 6,4 km/h (2 Bft) 97,87 %
25.08.2023 21:28 20,6 C 19,4 C 16,1 C 91 % 1008,8 hPa 0,0 l/m 0 min 0 min 0 W/m 6,4 km/h (2 Bft) 100,00 %
25.08.2023 21:30 20,6 C 19,4 C 16,1 C 91 % 1008,9 hPa 0,0 l/m 0 min 0 min 0 W/m 3,2 km/h (1 Bft) 100,00 %
25.08.2023 21:32 20,5 C 19,4 C 16,1 C 91 % 1008,9 hPa 0,0 l/m 0 min 0 min 0 W/m 0,0 km/h (0 Bft) 100,00 %
25.08.2023 21:34 20,5 C 19,4 C 16,1 C 91 % 1008,8 hPa 0,0 l/m 0 min 0 min 0 W/m 0,0 km/h (0 Bft) 100,00 %
25.08.2023 21:36 20,5 C 19,4 C 16,1 C 91 % 1008,8 hPa 0,0 l/m 0 min 0 min 0 W/m 0,0 km/h (0 Bft) 100,00 %
25.08.2023 21:38 20,4 C 19,4 C 16,1 C 91 % 1008,9 hPa 0,0 l/m 0 min 0 min 0 W/m 0,0 km/h (0 Bft) 100,00 %
25.08.2023 21:40 20,4 C 19,4 C 16,1 C 91 % 1008,8 hPa 0,0 l/m 0 min 0 min 0 W/m 0,0 km/h (0 Bft) 100,00 %
25.08.2023 21:42 20,4 C 19,4 C 16,1 C 91 % 1008,9 hPa 0,0 l/m 0 min 0 min 0 W/m 0,0 km/h (0 Bft) 100,00 %
25.08.2023 21:44 20,4 C 19,4 C 16,1 C 91 % 1008,8 hPa 0,0 l/m 0 min 0 min 0 W/m 0,0 km/h (0 Bft) 100,00 %
25.08.2023 21:46 20,4 C 18,9 C 16,1 C 91 % 1008,9 hPa 0,0 l/m 0 min 0 min 0 W/m 0,0 km/h (0 Bft) 100,00 %
25.08.2023 21:48 20,3 C 18,9 C 15,6 C 91 % 1008,9 hPa 0,0 l/m 0 min 0 min 0 W/m 0,0 km/h (0 Bft) 100,00 %
25.08.2023 21:50 20,3 C 18,9 C 15,6 C 91 % 1008,8 hPa 0,0 l/m 0 min 0 min 0 W/m 0,0 km/h (0 Bft) 95,74 %
25.08.2023 21:52 20,3 C 18,9 C 15,6 C 91 % 1008,9 hPa 0,0 l/m 0 min 0 min 0 W/m 0,0 km/h (0 Bft) 97,83 %
25.08.2023 21:54 20,3 C 18,9 C 15,6 C 92 % 1008,9 hPa 0,0 l/m 0 min 0 min 0 W/m 0,0 km/h (0 Bft) 100,00 %
25.08.2023 21:56 20,2 C 18,9 C 15,6 C 92 % 1009,0 hPa 0,0 l/m 0 min 0 min 0 W/m 0,0 km/h (0 Bft) 100,00 %
25.08.2023 21:58 20,2 C 18,9 C 15,6 C 92 % 1009,0 hPa 0,0 l/m 0 min 0 min 0 W/m 0,0 km/h (0 Bft) 100,00 %
25.08.2023 22:00 20,2 C 18,9 C 15,6 C 92 % 1009,0 hPa 0,0 l/m 0 min 0 min 0 W/m 0,0 km/h (0 Bft) 97,87 %
25.08.2023 22:02 20,2 C 18,9 C 15,6 C 92 % 1009,0 hPa 0,0 l/m 0 min 0 min 0 W/m 0,0 km/h (0 Bft) 95,74 %
25.08.2023 22:04 20,2 C 18,9 C 15,6 C 92 % 1009,1 hPa 0,0 l/m 0 min 0 min 0 W/m 3,2 km/h (1 Bft) 100,00 %
25.08.2023 22:06 20,1 C 18,9 C 15,6 C 92 % 1009,1 hPa 0,0 l/m 0 min 0 min 0 W/m 6,4 km/h (2 Bft) 97,87 %
25.08.2023 22:08 20,1 C 18,9 C 15,6 C 92 % 1009,1 hPa 0,0 l/m 0 min 0 min 0 W/m 6,4 km/h (2 Bft) 95,74 %
25.08.2023 22:10 20,1 C 18,9 C 15,6 C 92 % 1009,2 hPa 0,0 l/m 0 min 0 min 0 W/m 3,2 km/h (1 Bft) 97,87 %
25.08.2023 22:12 20,1 C 18,9 C 15,6 C 92 % 1009,1 hPa 0,0 l/m 0 min 0 min 0 W/m 3,2 km/h (1 Bft) 91,49 %
25.08.2023 22:14 20,0 C 18,9 C 15,6 C 92 % 1009,1 hPa 0,0 l/m 0 min 0 min 0 W/m 3,2 km/h (1 Bft) 95,74 %
25.08.2023 22:16 20,0 C 18,9 C 15,6 C 92 % 1009,1 hPa 0,0 l/m 0 min 0 min 0 W/m 6,4 km/h (2 Bft) 95,74 %
25.08.2023 22:18 19,9 C 18,9 C 15,6 C 92 % 1009,1 hPa 0,0 l/m 0 min 0 min 0 W/m 3,2 km/h (1 Bft) 93,48 %
25.08.2023 22:20 19,9 C 18,9 C 15,6 C 92 % 1009,1 hPa 0,0 l/m 0 min 0 min 0 W/m 3,2 km/h (1 Bft) 95,74 %
25.08.2023 22:22 19,9 C 18,9 C 15,6 C 93 % 1009,1 hPa 0,0 l/m 0 min 0 min 0 W/m 3,2 km/h (1 Bft) 93,62 %
25.08.2023 22:24 19,9 C 18,9 C 15,6 C 93 % 1009,1 hPa 0,0 l/m 0 min 0 min 0 W/m 6,4 km/h (2 Bft) 89,36 %
25.08.2023 22:26 19,9 C 18,9 C 15,6 C 93 % 1009,2 hPa 0,0 l/m 0 min 0 min 0 W/m 9,7 km/h (2 Bft) 93,62 %
25.08.2023 22:28 19,8 C 18,9 C 15,6 C 93 % 1009,1 hPa 0,0 l/m 0 min 0 min 0 W/m 3,2 km/h (1 Bft) 87,23 %
25.08.2023 22:30 19,8 C 18,9 C 15,6 C 93 % 1009,1 hPa 0,0 l/m 0 min 0 min 0 W/m 6,4 km/h (2 Bft) 92,98 %
25.08.2023 22:37 19,8 C 18,9 C 15,6 C 93 % 1009,0 hPa 0,0 l/m 0 min 0 min 0 W/m 3,2 km/h (1 Bft) 100,00 %
25.08.2023 22:38 19,8 C 18,9 C 15,6 C 93 % 1009,0 hPa 0,0 l/m 0 min 0 min 0 W/m 3,2 km/h (1 Bft) 100,00 %
25.08.2023 22:40 19,7 C 18,9 C 15,6 C 93 % 1009,0 hPa 0,0 l/m 0 min 0 min 0 W/m 6,4 km/h (2 Bft) 100,00 %
25.08.2023 22:42 19,7 C 18,9 C 15,6 C 93 % 1009,0 hPa 0,0 l/m 0 min 0 min 0 W/m 6,4 km/h (2 Bft) 93,75 %
25.08.2023 22:44 19,7 C 18,9 C 15,6 C 93 % 1009,0 hPa 0,0 l/m 0 min 0 min 0 W/m 6,4 km/h (2 Bft) 91,49 %
25.08.2023 22:46 19,7 C 18,9 C 15,6 C 93 % 1009,0 hPa 0,0 l/m 0 min 0 min 0 W/m 3,2 km/h (1 Bft) 93,48 %
25.08.2023 22:48 19,7 C 18,9 C 15,6 C 93 % 1009,0 hPa 0,0 l/m 0 min 0 min 0 W/m 0,0 km/h (0 Bft) 91,49 %
25.08.2023 22:50 19,7 C 18,9 C 15,6 C 93 % 1009,1 hPa 0,0 l/m 0 min 0 min 0 W/m 0,0 km/h (0 Bft) 93,62 %
25.08.2023 22:52 19,6 C 18,9 C 15,6 C 93 % 1009,1 hPa 0,0 l/m 0 min 0 min 0 W/m 0,0 km/h (0 Bft) 89,36 %
25.08.2023 22:54 19,6 C 18,9 C 15,6 C 93 % 1009,1 hPa 0,0 l/m 0 min 0 min 0 W/m 0,0 km/h (0 Bft) 93,62 %
25.08.2023 22:59 19,6 C 18,3 C 15,6 C 93 % 1009,2 hPa 0,0 l/m 0 min 0 min 0 W/m 0,0 km/h (0 Bft) 96,61 %
25.08.2023 23:00 19,6 C 18,3 C 15,6 C 93 % 1009,2 hPa 0,0 l/m 0 min 0 min 0 W/m 0,0 km/h (0 Bft) 96,30 %
25.08.2023 23:02 19,5 C 18,3 C 15,6 C 93 % 1009,1 hPa 0,0 l/m 0 min 0 min 0 W/m 3,2 km/h (1 Bft) 97,78 %
25.08.2023 23:04 19,5 C 18,3 C 15,6 C 93 % 1009,1 hPa 0,0 l/m 0 min 0 min 0 W/m 3,2 km/h (1 Bft) 97,87 %
25.08.2023 23:06 19,5 C 18,3 C 15,6 C 93 % 1009,1 hPa 0,0 l/m 0 min 0 min 0 W/m 3,2 km/h (1 Bft) 98,33 %
25.08.2023 23:08 19,4 C 18,3 C 15,6 C 94 % 1009,1 hPa 0,0 l/m 0 min 0 min 0 W/m 6,4 km/h (2 Bft) 97,14 %
25.08.2023 23:10 19,4 C 18,3 C 15,6 C 94 % 1009,1 hPa 0,0 l/m 0 min 0 min 0 W/m 6,4 km/h (2 Bft) 97,87 %
25.08.2023 23:12 19,4 C 18,3 C 15,6 C 93 % 1009,1 hPa 0,0 l/m 0 min 0 min 0 W/m 6,4 km/h (2 Bft) 100,00 %
25.08.2023 23:14 19,4 C 18,3 C 15,6 C 93 % 1009,1 hPa 0,0 l/m 0 min 0 min 0 W/m 3,2 km/h (1 Bft) 100,00 %
25.08.2023 23:16 19,4 C 18,3 C 15,6 C 94 % 1009,1 hPa 0,0 l/m 0 min 0 min 0 W/m 3,2 km/h (1 Bft) 97,87 %
25.08.2023 23:18 19,3 C 18,3 C 15,6 C 94 % 1009,2 hPa 0,0 l/m 0 min 2 min 0 W/m 6,4 km/h (2 Bft) 100,00 %
25.08.2023 23:20 19,3 C 18,3 C 15,0 C 94 % 1009,1 hPa 0,0 l/m 0 min 2 min 0 W/m 6,4 km/h (2 Bft) 100,00 %
25.08.2023 23:22 19,3 C 18,3 C 15,0 C 94 % 1009,1 hPa 0,0 l/m 0 min 2 min 0 W/m 3,2 km/h (1 Bft) 97,87 %
25.08.2023 23:24 19,4 C 18,3 C 15,0 C 94 % 1009,2 hPa 0,0 l/m 0 min 0 min 0 W/m 3,2 km/h (1 Bft) 100,00 %
25.08.2023 23:26 19,4 C 18,3 C 15,0 C 94 % 1009,2 hPa 0,0 l/m 0 min 0 min 0 W/m 0,0 km/h (0 Bft) 100,00 %
25.08.2023 23:28 19,4 C 18,3 C 15,0 C 94 % 1009,2 hPa 0,0 l/m 0 min 0 min 0 W/m 0,0 km/h (0 Bft) 97,87 %
25.08.2023 23:30 19,4 C 18,3 C 15,0 C 94 % 1009,2 hPa 0,0 l/m 0 min 0 min 0 W/m 0,0 km/h (0 Bft) 97,87 %
25.08.2023 23:32 19,4 C 18,3 C 15,0 C 94 % 1009,2 hPa 0,0 l/m 0 min 0 min 0 W/m 0,0 km/h (0 Bft) 100,00 %
25.08.2023 23:34 19,4 C 18,3 C 15,0 C 94 % 1009,3 hPa 0,0 l/m 0 min 0 min 0 W/m 0,0 km/h (0 Bft) 97,87 %
25.08.2023 23:36 19,4 C 18,3 C 15,0 C 94 % 1009,3 hPa 0,0 l/m 0 min 0 min 0 W/m 0,0 km/h (0 Bft) 100,00 %
25.08.2023 23:38 19,3 C 18,3 C 15,0 C 94 % 1009,3 hPa 0,0 l/m 0 min 0 min 0 W/m 3,2 km/h (1 Bft) 100,00 %
25.08.2023 23:40 19,3 C 18,3 C 14,4 C 94 % 1009,3 hPa 0,0 l/m 0 min 0 min 0 W/m 0,0 km/h (0 Bft) 97,87 %
25.08.2023 23:42 19,3 C 17,8 C 14,4 C 95 % 1009,3 hPa 0,0 l/m 0 min 0 min 0 W/m 0,0 km/h (0 Bft) 100,00 %
25.08.2023 23:44 19,3 C 18,3 C 15,0 C 95 % 1009,3 hPa 0,0 l/m 0 min 0 min 0 W/m 3,2 km/h (1 Bft) 100,00 %
25.08.2023 23:46 19,3 C 18,3 C 15,0 C 95 % 1009,3 hPa 0,0 l/m 0 min 0 min 0 W/m 3,2 km/h (1 Bft) 97,87 %
25.08.2023 23:48 19,3 C 18,3 C 15,0 C 95 % 1009,3 hPa 0,0 l/m 0 min 0 min 0 W/m 0,0 km/h (0 Bft) 100,00 %
25.08.2023 23:50 19,3 C 17,8 C 15,0 C 95 % 1009,4 hPa 0,0 l/m 0 min 0 min 0 W/m 0,0 km/h (0 Bft) 100,00 %
25.08.2023 23:52 19,3 C 17,8 C 15,0 C 95 % 1009,4 hPa 0,0 l/m 0 min 0 min 0 W/m 3,2 km/h (1 Bft) 95,74 %
25.08.2023 23:54 19,2 C 17,8 C 15,0 C 95 % 1009,5 hPa 0,0 l/m 0 min 0 min 0 W/m 0,0 km/h (0 Bft) 100,00 %
25.08.2023 23:56 19,2 C 17,8 C 14,4 C 95 % 1009,4 hPa 0,0 l/m 0 min 0 min 0 W/m 0,0 km/h (0 Bft) 100,00 %
25.08.2023 23:58 19,2 C 17,8 C 14,4 C 95 % 1009,4 hPa 0,0 l/m 0 min 0 min 0 W/m 6,4 km/h (2 Bft) 100,00 %
_ Min-Zeit 06:42 05:36 05:14 16:24 18:22 - - - - 00:02 00:02
Minimum _ 17,1 C 16,1 C 13,3 C 86 % 1007,7 hPa - - - - 0,0 km/h (0 Bft) 12,50 %
_ Max-Zeit 16:12 18:04 16:20 13:06 00:00 11:10 18:08 12:08 13:58 11:06 00:46
Maximum _ 23,7 C 27,2 C 18,3 C 100 % 1011,2 hPa 2,6 l/m 4 min 4 min 928 W/m 19,3 km/h
S-SW (3 Bft)
100,00 %
Durchschnitt _ 19,7 C 19,1 C 15,3 C 95 % 1008,9 hPa #26,6 l/m #2:34 h #4:22 h 143 W/m 5,2 km/h (1 Bft) 97,48 %
© 2023 W. Hausmann